<?xml version='1.0' encoding='UTF-8'?><gpx version="1.1" creator="JPX - https://github.com/jenetics/jpx" xmlns="http://www.topografix.com/GPX/1/1"><trk><trkseg><trkpt lat="44.5258383" lon="10.866445"><ele>132.0</ele><time>2026-04-11T06:39:21.422Z</time></trkpt><trkpt lat="44.5257483" lon="10.8663867"><ele>132.0</ele><time>2026-04-11T06:39:24.422Z</time></trkpt><trkpt lat="44.52565" lon="10.8663333"><ele>132.0</ele><time>2026-04-11T06:39:26.423Z</time></trkpt><trkpt lat="44.5255467" lon="10.8662667"><ele>132.0</ele><time>2026-04-11T06:39:28.422Z</time></trkpt><trkpt lat="44.5254733" lon="10.866215"><ele>132.0</ele><time>2026-04-11T06:39:29.422Z</time></trkpt><trkpt lat="44.5254033" lon="10.8661667"><ele>132.33333333333334</ele><time>2026-04-11T06:39:30.423Z</time></trkpt><trkpt lat="44.52533" lon="10.8661167"><ele>132.66666666666666</ele><time>2026-04-11T06:39:31.423Z</time></trkpt><trkpt lat="44.5252583" lon="10.866075"><ele>133.0</ele><time>2026-04-11T06:39:32.422Z</time></trkpt><trkpt lat="44.525185" lon="10.866035"><ele>133.33333333333331</ele><time>2026-04-11T06:39:33.423Z</time></trkpt><trkpt lat="44.5251117" lon="10.8659883"><ele>133.66666666666666</ele><time>2026-04-11T06:39:34.422Z</time></trkpt><trkpt lat="44.52503" lon="10.8659483"><ele>134.0</ele><time>2026-04-11T06:39:35.422Z</time></trkpt><trkpt lat="44.5249533" lon="10.86588"><ele>134.33333333333331</ele><time>2026-04-11T06:39:36.422Z</time></trkpt><trkpt lat="44.5248967" lon="10.8657933"><ele>134.66666666666666</ele><time>2026-04-11T06:39:37.423Z</time></trkpt><trkpt lat="44.524855" lon="10.8656933"><ele>135.0</ele><time>2026-04-11T06:39:38.423Z</time></trkpt><trkpt lat="44.5248283" lon="10.8655767"><ele>135.33333333333334</ele><time>2026-04-11T06:39:39.422Z</time></trkpt><trkpt lat="44.5248133" lon="10.865455"><ele>135.66666666666669</ele><time>2026-04-11T06:39:40.422Z</time></trkpt><trkpt lat="44.5248117" lon="10.8653233"><ele>136.0</ele><time>2026-04-11T06:39:41.422Z</time></trkpt><trkpt lat="44.5248083" lon="10.865185"><ele>136.4</ele><time>2026-04-11T06:39:42.422Z</time></trkpt><trkpt lat="44.5248" lon="10.865045"><ele>136.8</ele><time>2026-04-11T06:39:43.423Z</time></trkpt><trkpt lat="44.5247883" lon="10.8648983"><ele>137.20000000000002</ele><time>2026-04-11T06:39:44.423Z</time></trkpt><trkpt lat="44.5247767" lon="10.864765"><ele>137.6</ele><time>2026-04-11T06:39:45.422Z</time></trkpt><trkpt lat="44.5247783" lon="10.8646017"><ele>138.0</ele><time>2026-04-11T06:39:46.422Z</time></trkpt><trkpt lat="44.52477" lon="10.8644583"><ele>138.0</ele><time>2026-04-11T06:39:47.423Z</time></trkpt><trkpt lat="44.52476" lon="10.8643017"><ele>138.0</ele><time>2026-04-11T06:39:48.423Z</time></trkpt><trkpt lat="44.52475" lon="10.8641517"><ele>138.0</ele><time>2026-04-11T06:39:49.422Z</time></trkpt><trkpt lat="44.5247217" lon="10.8640017"><ele>138.0</ele><time>2026-04-11T06:39:50.422Z</time></trkpt><trkpt lat="44.5246733" lon="10.8638467"><ele>138.75</ele><time>2026-04-11T06:39:51.422Z</time></trkpt><trkpt lat="44.5246083" lon="10.8636983"><ele>139.5</ele><time>2026-04-11T06:39:52.422Z</time></trkpt><trkpt lat="44.5245317" lon="10.8635633"><ele>140.25</ele><time>2026-04-11T06:39:53.422Z</time></trkpt><trkpt lat="44.5244467" lon="10.8634283"><ele>141.0</ele><time>2026-04-11T06:39:54.422Z</time></trkpt><trkpt lat="44.5243617" lon="10.8632967"><ele>142.75</ele><time>2026-04-11T06:39:55.422Z</time></trkpt><trkpt lat="44.524285" lon="10.8631617"><ele>144.5</ele><time>2026-04-11T06:39:56.422Z</time></trkpt><trkpt lat="44.5242117" lon="10.8630317"><ele>146.25</ele><time>2026-04-11T06:39:57.423Z</time></trkpt><trkpt lat="44.5241383" lon="10.8629"><ele>148.0</ele><time>2026-04-11T06:39:58.422Z</time></trkpt><trkpt lat="44.5240633" lon="10.8627633"><ele>148.0</ele><time>2026-04-11T06:39:59.423Z</time></trkpt><trkpt lat="44.5239867" lon="10.86262"><ele>148.0</ele><time>2026-04-11T06:40:00.422Z</time></trkpt><trkpt lat="44.5239167" lon="10.862485"><ele>148.0</ele><time>2026-04-11T06:40:01.422Z</time></trkpt><trkpt lat="44.523845" lon="10.8623417"><ele>148.0</ele><time>2026-04-11T06:40:02.422Z</time></trkpt><trkpt lat="44.5237717" lon="10.8622033"><ele>148.0</ele><time>2026-04-11T06:40:03.422Z</time></trkpt><trkpt lat="44.5237" lon="10.8620617"><ele>148.0</ele><time>2026-04-11T06:40:04.422Z</time></trkpt><trkpt lat="44.5236367" lon="10.8619133"><ele>148.0</ele><time>2026-04-11T06:40:05.422Z</time></trkpt><trkpt lat="44.523565" lon="10.8617783"><ele>148.0</ele><time>2026-04-11T06:40:06.422Z</time></trkpt><trkpt lat="44.5235017" lon="10.86164"><ele>149.75</ele><time>2026-04-11T06:40:07.422Z</time></trkpt><trkpt lat="44.5234283" lon="10.8615017"><ele>151.5</ele><time>2026-04-11T06:40:08.423Z</time></trkpt><trkpt lat="44.523355" lon="10.8613767"><ele>153.25</ele><time>2026-04-11T06:40:09.423Z</time></trkpt><trkpt lat="44.52328" lon="10.8612617"><ele>155.0</ele><time>2026-04-11T06:40:10.423Z</time></trkpt><trkpt lat="44.52321" lon="10.8611433"><ele>155.0</ele><time>2026-04-11T06:40:11.423Z</time></trkpt><trkpt lat="44.5231433" lon="10.8610367"><ele>155.0</ele><time>2026-04-11T06:40:12.423Z</time></trkpt><trkpt lat="44.52307" lon="10.8609317"><ele>155.0</ele><time>2026-04-11T06:40:13.422Z</time></trkpt><trkpt lat="44.5229983" lon="10.8608183"><ele>155.0</ele><time>2026-04-11T06:40:14.422Z</time></trkpt><trkpt lat="44.522935" lon="10.8607017"><ele>155.0</ele><time>2026-04-11T06:40:15.422Z</time></trkpt><trkpt lat="44.5228883" lon="10.8605833"><ele>155.2</ele><time>2026-04-11T06:40:16.422Z</time></trkpt><trkpt lat="44.5228633" lon="10.8604517"><ele>155.4</ele><time>2026-04-11T06:40:17.422Z</time></trkpt><trkpt lat="44.5228683" lon="10.8603133"><ele>155.6</ele><time>2026-04-11T06:40:18.422Z</time></trkpt><trkpt lat="44.5229" lon="10.86019"><ele>155.8</ele><time>2026-04-11T06:40:19.423Z</time></trkpt><trkpt lat="44.5229483" lon="10.860085"><ele>156.0</ele><time>2026-04-11T06:40:20.423Z</time></trkpt><trkpt lat="44.5230167" lon="10.8599883"><ele>155.6</ele><time>2026-04-11T06:40:21.423Z</time></trkpt><trkpt lat="44.5230933" lon="10.8599067"><ele>155.2</ele><time>2026-04-11T06:40:22.422Z</time></trkpt><trkpt lat="44.5231867" lon="10.8598433"><ele>154.8</ele><time>2026-04-11T06:40:23.422Z</time></trkpt><trkpt lat="44.52328" lon="10.8597783"><ele>154.4</ele><time>2026-04-11T06:40:24.422Z</time></trkpt><trkpt lat="44.5233767" lon="10.8596983"><ele>154.0</ele><time>2026-04-11T06:40:25.423Z</time></trkpt><trkpt lat="44.523475" lon="10.859615"><ele>154.0</ele><time>2026-04-11T06:40:26.423Z</time></trkpt><trkpt lat="44.5235683" lon="10.8595467"><ele>154.0</ele><time>2026-04-11T06:40:27.422Z</time></trkpt><trkpt lat="44.52367" lon="10.8594967"><ele>154.0</ele><time>2026-04-11T06:40:28.423Z</time></trkpt><trkpt lat="44.523755" lon="10.8594483"><ele>154.0</ele><time>2026-04-11T06:40:29.422Z</time></trkpt><trkpt lat="44.5238367" lon="10.8593967"><ele>154.0</ele><time>2026-04-11T06:40:30.422Z</time></trkpt><trkpt lat="44.5238983" lon="10.8593417"><ele>153.33333333333334</ele><time>2026-04-11T06:40:31.423Z</time></trkpt><trkpt lat="44.5239483" lon="10.85927"><ele>152.66666666666669</ele><time>2026-04-11T06:40:32.423Z</time></trkpt><trkpt lat="44.5239683" lon="10.859145"><ele>152.0</ele><time>2026-04-11T06:40:34.422Z</time></trkpt><trkpt lat="44.5238783" lon="10.8590483"><ele>151.33333333333334</ele><time>2026-04-11T06:40:36.423Z</time></trkpt><trkpt lat="44.523805" lon="10.8590217"><ele>150.66666666666666</ele><time>2026-04-11T06:40:37.422Z</time></trkpt><trkpt lat="44.5237183" lon="10.859005"><ele>150.0</ele><time>2026-04-11T06:40:38.422Z</time></trkpt><trkpt lat="44.52363" lon="10.858975"><ele>150.0</ele><time>2026-04-11T06:40:39.422Z</time></trkpt><trkpt lat="44.5235433" lon="10.8589183"><ele>150.0</ele><time>2026-04-11T06:40:40.423Z</time></trkpt><trkpt lat="44.52346" lon="10.8588467"><ele>150.0</ele><time>2026-04-11T06:40:41.422Z</time></trkpt><trkpt lat="44.52339" lon="10.858765"><ele>150.0</ele><time>2026-04-11T06:40:42.422Z</time></trkpt><trkpt lat="44.5233333" lon="10.8586867"><ele>150.0</ele><time>2026-04-11T06:40:43.423Z</time></trkpt><trkpt lat="44.5232867" lon="10.8586117"><ele>150.0</ele><time>2026-04-11T06:40:44.422Z</time></trkpt><trkpt lat="44.5232433" lon="10.8585367"><ele>149.5</ele><time>2026-04-11T06:40:45.423Z</time></trkpt><trkpt lat="44.5232133" lon="10.858435"><ele>149.0</ele><time>2026-04-11T06:40:46.422Z</time></trkpt><trkpt lat="44.5231933" lon="10.8583267"><ele>148.5</ele><time>2026-04-11T06:40:47.422Z</time></trkpt><trkpt lat="44.5231883" lon="10.8582117"><ele>148.0</ele><time>2026-04-11T06:40:48.422Z</time></trkpt><trkpt lat="44.5231867" lon="10.85809"><ele>147.5</ele><time>2026-04-11T06:40:49.423Z</time></trkpt><trkpt lat="44.5231883" lon="10.8579717"><ele>147.0</ele><time>2026-04-11T06:40:50.423Z</time></trkpt><trkpt lat="44.5231917" lon="10.8578583"><ele>147.0</ele><time>2026-04-11T06:40:51.422Z</time></trkpt><trkpt lat="44.5231983" lon="10.85775"><ele>147.0</ele><time>2026-04-11T06:40:52.422Z</time></trkpt><trkpt lat="44.5232" lon="10.8576017"><ele>147.0</ele><time>2026-04-11T06:40:54.422Z</time></trkpt><trkpt lat="44.523215" lon="10.8575033"><ele>147.0</ele><time>2026-04-11T06:40:56.422Z</time></trkpt><trkpt lat="44.52324" lon="10.8573933"><ele>147.0</ele><time>2026-04-11T06:40:58.423Z</time></trkpt><trkpt lat="44.523275" lon="10.8572883"><ele>147.0</ele><time>2026-04-11T06:41:00.422Z</time></trkpt><trkpt lat="44.5232283" lon="10.8572033"><ele>146.4</ele><time>2026-04-11T06:41:02.422Z</time></trkpt><trkpt lat="44.5231267" lon="10.8572367"><ele>145.79999999999998</ele><time>2026-04-11T06:41:04.422Z</time></trkpt><trkpt lat="44.5230633" lon="10.8572833"><ele>145.2</ele><time>2026-04-11T06:41:05.422Z</time></trkpt><trkpt lat="44.5229783" lon="10.8573183"><ele>144.6</ele><time>2026-04-11T06:41:06.423Z</time></trkpt><trkpt lat="44.5228733" lon="10.8573367"><ele>144.0</ele><time>2026-04-11T06:41:07.422Z</time></trkpt><trkpt lat="44.52276" lon="10.8573333"><ele>144.0</ele><time>2026-04-11T06:41:08.423Z</time></trkpt><trkpt lat="44.522645" lon="10.8573033"><ele>144.0</ele><time>2026-04-11T06:41:09.423Z</time></trkpt><trkpt lat="44.5225317" lon="10.85725"><ele>144.0</ele><time>2026-04-11T06:41:10.422Z</time></trkpt><trkpt lat="44.522425" lon="10.8571867"><ele>144.0</ele><time>2026-04-11T06:41:11.423Z</time></trkpt><trkpt lat="44.52232" lon="10.8571117"><ele>144.0</ele><time>2026-04-11T06:41:12.422Z</time></trkpt><trkpt lat="44.5222033" lon="10.8570367"><ele>144.0</ele><time>2026-04-11T06:41:13.422Z</time></trkpt><trkpt lat="44.522085" lon="10.8569633"><ele>144.0</ele><time>2026-04-11T06:41:14.423Z</time></trkpt><trkpt lat="44.5219733" lon="10.8568817"><ele>144.0</ele><time>2026-04-11T06:41:15.422Z</time></trkpt><trkpt lat="44.5218567" lon="10.856805"><ele>144.75</ele><time>2026-04-11T06:41:16.422Z</time></trkpt><trkpt lat="44.521735" lon="10.8567267"><ele>145.5</ele><time>2026-04-11T06:41:17.422Z</time></trkpt><trkpt lat="44.5216217" lon="10.8566583"><ele>146.25</ele><time>2026-04-11T06:41:18.422Z</time></trkpt><trkpt lat="44.5214983" lon="10.856575"><ele>147.0</ele><time>2026-04-11T06:41:19.423Z</time></trkpt><trkpt lat="44.52138" lon="10.8564983"><ele>147.0</ele><time>2026-04-11T06:41:20.422Z</time></trkpt><trkpt lat="44.5212733" lon="10.8564183"><ele>147.0</ele><time>2026-04-11T06:41:21.423Z</time></trkpt><trkpt lat="44.52115" lon="10.8563683"><ele>147.0</ele><time>2026-04-11T06:41:22.423Z</time></trkpt><trkpt lat="44.52104" lon="10.8563317"><ele>147.0</ele><time>2026-04-11T06:41:23.422Z</time></trkpt><trkpt lat="44.5209517" lon="10.85632"><ele>146.83333333333334</ele><time>2026-04-11T06:41:24.423Z</time></trkpt><trkpt lat="44.5208783" lon="10.85632"><ele>146.66666666666666</ele><time>2026-04-11T06:41:25.422Z</time></trkpt><trkpt lat="44.5207983" lon="10.8563033"><ele>146.5</ele><time>2026-04-11T06:41:27.422Z</time></trkpt><trkpt lat="44.5207833" lon="10.8561917"><ele>146.33333333333331</ele><time>2026-04-11T06:41:30.421Z</time></trkpt><trkpt lat="44.520805" lon="10.8560483"><ele>146.16666666666666</ele><time>2026-04-11T06:41:32.421Z</time></trkpt><trkpt lat="44.5208233" lon="10.8559183"><ele>146.0</ele><time>2026-04-11T06:41:33.422Z</time></trkpt><trkpt lat="44.5208317" lon="10.8557733"><ele>145.8</ele><time>2026-04-11T06:41:34.421Z</time></trkpt><trkpt lat="44.5208467" lon="10.8556333"><ele>145.6</ele><time>2026-04-11T06:41:35.421Z</time></trkpt><trkpt lat="44.5208567" lon="10.8555017"><ele>145.4</ele><time>2026-04-11T06:41:36.421Z</time></trkpt><trkpt lat="44.5208583" lon="10.855355"><ele>145.2</ele><time>2026-04-11T06:41:37.421Z</time></trkpt><trkpt lat="44.5208583" lon="10.8552033"><ele>145.0</ele><time>2026-04-11T06:41:38.422Z</time></trkpt><trkpt lat="44.52086" lon="10.855065"><ele>146.33333333333334</ele><time>2026-04-11T06:41:39.421Z</time></trkpt><trkpt lat="44.5208317" lon="10.85495"><ele>147.66666666666669</ele><time>2026-04-11T06:41:40.421Z</time></trkpt><trkpt lat="44.5207917" lon="10.8548767"><ele>149.0</ele><time>2026-04-11T06:41:41.421Z</time></trkpt><trkpt lat="44.5207417" lon="10.8548133"><ele>150.33333333333334</ele><time>2026-04-11T06:41:42.421Z</time></trkpt><trkpt lat="44.5207033" lon="10.8547417"><ele>151.66666666666666</ele><time>2026-04-11T06:41:43.421Z</time></trkpt><trkpt lat="44.5206967" lon="10.8545867"><ele>153.0</ele><time>2026-04-11T06:41:45.421Z</time></trkpt><trkpt lat="44.5206967" lon="10.8544883"><ele>153.0</ele><time>2026-04-11T06:41:46.421Z</time></trkpt><trkpt lat="44.5207067" lon="10.8543933"><ele>153.0</ele><time>2026-04-11T06:41:47.422Z</time></trkpt><trkpt lat="44.5207183" lon="10.8543033"><ele>153.0</ele><time>2026-04-11T06:41:48.421Z</time></trkpt><trkpt lat="44.5207317" lon="10.8542067"><ele>153.0</ele><time>2026-04-11T06:41:49.422Z</time></trkpt><trkpt lat="44.5207383" lon="10.8541033"><ele>153.0</ele><time>2026-04-11T06:41:50.422Z</time></trkpt><trkpt lat="44.5207483" lon="10.8539917"><ele>153.0</ele><time>2026-04-11T06:41:51.422Z</time></trkpt><trkpt lat="44.5207683" lon="10.8538817"><ele>153.0</ele><time>2026-04-11T06:41:52.422Z</time></trkpt><trkpt lat="44.5207883" lon="10.8537767"><ele>154.33333333333334</ele><time>2026-04-11T06:41:53.421Z</time></trkpt><trkpt lat="44.52081" lon="10.85366"><ele>155.66666666666666</ele><time>2026-04-11T06:41:54.422Z</time></trkpt><trkpt lat="44.52083" lon="10.85354"><ele>157.0</ele><time>2026-04-11T06:41:55.421Z</time></trkpt><trkpt lat="44.5208433" lon="10.853435"><ele>158.33333333333331</ele><time>2026-04-11T06:41:56.421Z</time></trkpt><trkpt lat="44.52087" lon="10.8533333"><ele>159.66666666666666</ele><time>2026-04-11T06:41:57.421Z</time></trkpt><trkpt lat="44.5208917" lon="10.8532167"><ele>161.0</ele><time>2026-04-11T06:41:58.422Z</time></trkpt><trkpt lat="44.5209117" lon="10.8530833"><ele>162.16666666666666</ele><time>2026-04-11T06:41:59.422Z</time></trkpt><trkpt lat="44.5209333" lon="10.8529483"><ele>163.33333333333331</ele><time>2026-04-11T06:42:00.421Z</time></trkpt><trkpt lat="44.520955" lon="10.852825"><ele>164.5</ele><time>2026-04-11T06:42:01.421Z</time></trkpt><trkpt lat="44.5209717" lon="10.8527067"><ele>165.66666666666666</ele><time>2026-04-11T06:42:02.421Z</time></trkpt><trkpt lat="44.520995" lon="10.8526033"><ele>166.83333333333334</ele><time>2026-04-11T06:42:03.421Z</time></trkpt><trkpt lat="44.5210083" lon="10.8525033"><ele>168.0</ele><time>2026-04-11T06:42:04.421Z</time></trkpt><trkpt lat="44.52103" lon="10.8523467"><ele>168.33333333333334</ele><time>2026-04-11T06:42:06.422Z</time></trkpt><trkpt lat="44.5210183" lon="10.8522267"><ele>168.66666666666666</ele><time>2026-04-11T06:42:08.422Z</time></trkpt><trkpt lat="44.5209833" lon="10.8521333"><ele>169.0</ele><time>2026-04-11T06:42:10.421Z</time></trkpt><trkpt lat="44.5209633" lon="10.85201"><ele>169.33333333333331</ele><time>2026-04-11T06:42:12.421Z</time></trkpt><trkpt lat="44.520895" lon="10.8519117"><ele>169.66666666666666</ele><time>2026-04-11T06:42:14.421Z</time></trkpt><trkpt lat="44.52083" lon="10.8518683"><ele>170.0</ele><time>2026-04-11T06:42:15.422Z</time></trkpt><trkpt lat="44.5207567" lon="10.85183"><ele>169.66666666666666</ele><time>2026-04-11T06:42:16.421Z</time></trkpt><trkpt lat="44.5206833" lon="10.8517867"><ele>169.33333333333331</ele><time>2026-04-11T06:42:17.421Z</time></trkpt><trkpt lat="44.5206167" lon="10.8517567"><ele>169.0</ele><time>2026-04-11T06:42:18.421Z</time></trkpt><trkpt lat="44.5205517" lon="10.8517267"><ele>168.66666666666666</ele><time>2026-04-11T06:42:19.421Z</time></trkpt><trkpt lat="44.520455" lon="10.8516817"><ele>168.33333333333334</ele><time>2026-04-11T06:42:21.421Z</time></trkpt><trkpt lat="44.5203733" lon="10.8516267"><ele>168.0</ele><time>2026-04-11T06:42:23.421Z</time></trkpt><trkpt lat="44.5203" lon="10.8515917"><ele>169.0</ele><time>2026-04-11T06:42:25.422Z</time></trkpt><trkpt lat="44.5202133" lon="10.8516117"><ele>170.0</ele><time>2026-04-11T06:42:27.422Z</time></trkpt><trkpt lat="44.52011" lon="10.851665"><ele>171.0</ele><time>2026-04-11T06:42:29.422Z</time></trkpt><trkpt lat="44.5200133" lon="10.851715"><ele>172.0</ele><time>2026-04-11T06:42:31.422Z</time></trkpt><trkpt lat="44.519925" lon="10.85177"><ele>173.0</ele><time>2026-04-11T06:42:33.421Z</time></trkpt><trkpt lat="44.5198283" lon="10.8518083"><ele>173.0</ele><time>2026-04-11T06:42:35.422Z</time></trkpt><trkpt lat="44.5197333" lon="10.85182"><ele>173.0</ele><time>2026-04-11T06:42:37.422Z</time></trkpt><trkpt lat="44.5196417" lon="10.8518367"><ele>173.0</ele><time>2026-04-11T06:42:39.421Z</time></trkpt><trkpt lat="44.519545" lon="10.8518367"><ele>173.0</ele><time>2026-04-11T06:42:41.422Z</time></trkpt><trkpt lat="44.5194317" lon="10.85183"><ele>173.0</ele><time>2026-04-11T06:42:43.421Z</time></trkpt><trkpt lat="44.5193167" lon="10.851805"><ele>174.0</ele><time>2026-04-11T06:42:45.421Z</time></trkpt><trkpt lat="44.519205" lon="10.8517867"><ele>175.0</ele><time>2026-04-11T06:42:47.422Z</time></trkpt><trkpt lat="44.5190983" lon="10.85178"><ele>176.0</ele><time>2026-04-11T06:42:49.422Z</time></trkpt><trkpt lat="44.5189983" lon="10.8517417"><ele>177.0</ele><time>2026-04-11T06:42:51.422Z</time></trkpt><trkpt lat="44.5189033" lon="10.8517017"><ele>178.0</ele><time>2026-04-11T06:42:53.421Z</time></trkpt><trkpt lat="44.51879" lon="10.8516483"><ele>178.2</ele><time>2026-04-11T06:42:55.421Z</time></trkpt><trkpt lat="44.51867" lon="10.8516183"><ele>178.4</ele><time>2026-04-11T06:42:57.421Z</time></trkpt><trkpt lat="44.5185867" lon="10.8515833"><ele>178.6</ele><time>2026-04-11T06:42:59.422Z</time></trkpt><trkpt lat="44.5185433" lon="10.85151"><ele>178.79999999999998</ele><time>2026-04-11T06:43:01.422Z</time></trkpt><trkpt lat="44.518555" lon="10.8513867"><ele>179.0</ele><time>2026-04-11T06:43:03.421Z</time></trkpt><trkpt lat="44.5185933" lon="10.85125"><ele>179.0</ele><time>2026-04-11T06:43:05.421Z</time></trkpt><trkpt lat="44.5185883" lon="10.8511583"><ele>179.0</ele><time>2026-04-11T06:43:08.421Z</time></trkpt><trkpt lat="44.5185283" lon="10.851115"><ele>179.0</ele><time>2026-04-11T06:43:10.422Z</time></trkpt><trkpt lat="44.5184183" lon="10.8510533"><ele>179.0</ele><time>2026-04-11T06:43:12.422Z</time></trkpt><trkpt lat="44.5183567" lon="10.85101"><ele>179.0</ele><time>2026-04-11T06:43:13.421Z</time></trkpt><trkpt lat="44.5182967" lon="10.85097"><ele>179.0</ele><time>2026-04-11T06:43:14.422Z</time></trkpt><trkpt lat="44.5182267" lon="10.8509233"><ele>179.0</ele><time>2026-04-11T06:43:15.421Z</time></trkpt><trkpt lat="44.5181533" lon="10.85088"><ele>179.0</ele><time>2026-04-11T06:43:16.422Z</time></trkpt><trkpt lat="44.5180767" lon="10.8508333"><ele>179.0</ele><time>2026-04-11T06:43:17.421Z</time></trkpt><trkpt lat="44.5180033" lon="10.8507883"><ele>179.0</ele><time>2026-04-11T06:43:18.422Z</time></trkpt><trkpt lat="44.517925" lon="10.8507433"><ele>179.0</ele><time>2026-04-11T06:43:19.421Z</time></trkpt><trkpt lat="44.5178533" lon="10.850695"><ele>179.0</ele><time>2026-04-11T06:43:20.421Z</time></trkpt><trkpt lat="44.517785" lon="10.8506417"><ele>180.16666666666666</ele><time>2026-04-11T06:43:21.421Z</time></trkpt><trkpt lat="44.517715" lon="10.8505917"><ele>181.33333333333331</ele><time>2026-04-11T06:43:22.421Z</time></trkpt><trkpt lat="44.5176417" lon="10.8505517"><ele>182.5</ele><time>2026-04-11T06:43:23.421Z</time></trkpt><trkpt lat="44.5175733" lon="10.8505033"><ele>183.66666666666666</ele><time>2026-04-11T06:43:24.421Z</time></trkpt><trkpt lat="44.5175017" lon="10.850455"><ele>184.83333333333334</ele><time>2026-04-11T06:43:25.422Z</time></trkpt><trkpt lat="44.51743" lon="10.8504133"><ele>186.0</ele><time>2026-04-11T06:43:26.421Z</time></trkpt><trkpt lat="44.517355" lon="10.8503667"><ele>186.0</ele><time>2026-04-11T06:43:27.421Z</time></trkpt><trkpt lat="44.5172867" lon="10.850315"><ele>186.0</ele><time>2026-04-11T06:43:28.421Z</time></trkpt><trkpt lat="44.5172167" lon="10.8502617"><ele>186.0</ele><time>2026-04-11T06:43:29.422Z</time></trkpt><trkpt lat="44.51715" lon="10.85021"><ele>186.0</ele><time>2026-04-11T06:43:30.421Z</time></trkpt><trkpt lat="44.5170867" lon="10.8501533"><ele>186.0</ele><time>2026-04-11T06:43:31.422Z</time></trkpt><trkpt lat="44.5170283" lon="10.8500867"><ele>186.0</ele><time>2026-04-11T06:43:32.422Z</time></trkpt><trkpt lat="44.51697" lon="10.8500117"><ele>186.60000000000002</ele><time>2026-04-11T06:43:33.421Z</time></trkpt><trkpt lat="44.5169167" lon="10.8499433"><ele>187.2</ele><time>2026-04-11T06:43:34.421Z</time></trkpt><trkpt lat="44.516825" lon="10.8498367"><ele>187.8</ele><time>2026-04-11T06:43:36.422Z</time></trkpt><trkpt lat="44.5167267" lon="10.8497767"><ele>188.39999999999998</ele><time>2026-04-11T06:43:38.421Z</time></trkpt><trkpt lat="44.5166317" lon="10.8497167"><ele>189.0</ele><time>2026-04-11T06:43:40.421Z</time></trkpt><trkpt lat="44.5166" lon="10.8496083"><ele>189.0</ele><time>2026-04-11T06:43:42.422Z</time></trkpt><trkpt lat="44.5166167" lon="10.8494567"><ele>189.0</ele><time>2026-04-11T06:43:44.421Z</time></trkpt><trkpt lat="44.5166067" lon="10.849285"><ele>189.0</ele><time>2026-04-11T06:43:46.422Z</time></trkpt><trkpt lat="44.5165783" lon="10.8491833"><ele>189.0</ele><time>2026-04-11T06:43:47.421Z</time></trkpt><trkpt lat="44.5165367" lon="10.8491"><ele>189.0</ele><time>2026-04-11T06:43:48.422Z</time></trkpt><trkpt lat="44.5164917" lon="10.849025"><ele>189.33333333333334</ele><time>2026-04-11T06:43:49.421Z</time></trkpt><trkpt lat="44.51644" lon="10.848965"><ele>189.66666666666666</ele><time>2026-04-11T06:43:50.421Z</time></trkpt><trkpt lat="44.5163817" lon="10.848905"><ele>190.0</ele><time>2026-04-11T06:43:51.421Z</time></trkpt><trkpt lat="44.5163233" lon="10.848835"><ele>190.33333333333331</ele><time>2026-04-11T06:43:52.421Z</time></trkpt><trkpt lat="44.5162783" lon="10.8487617"><ele>190.66666666666666</ele><time>2026-04-11T06:43:53.421Z</time></trkpt><trkpt lat="44.516225" lon="10.8486033"><ele>191.0</ele><time>2026-04-11T06:43:55.421Z</time></trkpt><trkpt lat="44.5162183" lon="10.8484883"><ele>190.0</ele><time>2026-04-11T06:43:56.422Z</time></trkpt><trkpt lat="44.5162133" lon="10.8483733"><ele>189.0</ele><time>2026-04-11T06:43:57.422Z</time></trkpt><trkpt lat="44.5162167" lon="10.848245"><ele>188.0</ele><time>2026-04-11T06:43:58.421Z</time></trkpt><trkpt lat="44.5162367" lon="10.8481233"><ele>187.0</ele><time>2026-04-11T06:43:59.421Z</time></trkpt><trkpt lat="44.516255" lon="10.8480167"><ele>186.0</ele><time>2026-04-11T06:44:00.422Z</time></trkpt><trkpt lat="44.5162833" lon="10.847925"><ele>185.0</ele><time>2026-04-11T06:44:01.421Z</time></trkpt><trkpt lat="44.516315" lon="10.8478367"><ele>184.66666666666666</ele><time>2026-04-11T06:44:02.421Z</time></trkpt><trkpt lat="44.5163517" lon="10.847755"><ele>184.33333333333331</ele><time>2026-04-11T06:44:03.422Z</time></trkpt><trkpt lat="44.5164067" lon="10.8476867"><ele>184.0</ele><time>2026-04-11T06:44:04.421Z</time></trkpt><trkpt lat="44.5164667" lon="10.8476433"><ele>183.66666666666666</ele><time>2026-04-11T06:44:05.422Z</time></trkpt><trkpt lat="44.516575" lon="10.8476117"><ele>183.33333333333334</ele><time>2026-04-11T06:44:07.422Z</time></trkpt><trkpt lat="44.5166467" lon="10.8476317"><ele>183.0</ele><time>2026-04-11T06:44:08.421Z</time></trkpt><trkpt lat="44.5167267" lon="10.84766"><ele>183.0</ele><time>2026-04-11T06:44:09.422Z</time></trkpt><trkpt lat="44.516815" lon="10.8476717"><ele>183.0</ele><time>2026-04-11T06:44:10.421Z</time></trkpt><trkpt lat="44.5169033" lon="10.8476567"><ele>183.0</ele><time>2026-04-11T06:44:11.421Z</time></trkpt><trkpt lat="44.5170083" lon="10.8476367"><ele>183.0</ele><time>2026-04-11T06:44:12.422Z</time></trkpt><trkpt lat="44.5171017" lon="10.8475967"><ele>183.0</ele><time>2026-04-11T06:44:13.422Z</time></trkpt><trkpt lat="44.5172017" lon="10.84755"><ele>184.14285714285714</ele><time>2026-04-11T06:44:14.421Z</time></trkpt><trkpt lat="44.5172867" lon="10.8475033"><ele>185.28571428571428</ele><time>2026-04-11T06:44:15.422Z</time></trkpt><trkpt lat="44.51736" lon="10.847455"><ele>186.42857142857144</ele><time>2026-04-11T06:44:16.422Z</time></trkpt><trkpt lat="44.51742" lon="10.8474033"><ele>187.57142857142856</ele><time>2026-04-11T06:44:17.421Z</time></trkpt><trkpt lat="44.517465" lon="10.84734"><ele>188.7142857142857</ele><time>2026-04-11T06:44:18.421Z</time></trkpt><trkpt lat="44.5174983" lon="10.84726"><ele>189.85714285714286</ele><time>2026-04-11T06:44:19.421Z</time></trkpt><trkpt lat="44.51752" lon="10.8471567"><ele>191.0</ele><time>2026-04-11T06:44:20.421Z</time></trkpt><trkpt lat="44.5175233" lon="10.8470283"><ele>191.0</ele><time>2026-04-11T06:44:21.422Z</time></trkpt><trkpt lat="44.5175083" lon="10.8468783"><ele>191.0</ele><time>2026-04-11T06:44:22.421Z</time></trkpt><trkpt lat="44.5174817" lon="10.8466833"><ele>191.0</ele><time>2026-04-11T06:44:23.421Z</time></trkpt><trkpt lat="44.5174567" lon="10.8464867"><ele>191.0</ele><time>2026-04-11T06:44:24.421Z</time></trkpt><trkpt lat="44.517445" lon="10.84632"><ele>192.16666666666666</ele><time>2026-04-11T06:44:25.421Z</time></trkpt><trkpt lat="44.51743" lon="10.8461833"><ele>193.33333333333331</ele><time>2026-04-11T06:44:26.421Z</time></trkpt><trkpt lat="44.5174183" lon="10.8460933"><ele>194.5</ele><time>2026-04-11T06:44:27.421Z</time></trkpt><trkpt lat="44.5174183" lon="10.8459833"><ele>195.66666666666666</ele><time>2026-04-11T06:44:29.421Z</time></trkpt><trkpt lat="44.517495" lon="10.8459483"><ele>196.83333333333334</ele><time>2026-04-11T06:44:32.421Z</time></trkpt><trkpt lat="44.5175883" lon="10.84601"><ele>198.0</ele><time>2026-04-11T06:44:34.422Z</time></trkpt><trkpt lat="44.5176633" lon="10.8460583"><ele>198.0</ele><time>2026-04-11T06:44:35.421Z</time></trkpt><trkpt lat="44.5177517" lon="10.846115"><ele>198.0</ele><time>2026-04-11T06:44:36.421Z</time></trkpt><trkpt lat="44.5178583" lon="10.8461833"><ele>198.0</ele><time>2026-04-11T06:44:37.421Z</time></trkpt><trkpt lat="44.5179767" lon="10.846255"><ele>198.0</ele><time>2026-04-11T06:44:38.421Z</time></trkpt><trkpt lat="44.5180833" lon="10.8463183"><ele>196.60000000000002</ele><time>2026-04-11T06:44:39.421Z</time></trkpt><trkpt lat="44.5181883" lon="10.8463867"><ele>195.20000000000002</ele><time>2026-04-11T06:44:40.421Z</time></trkpt><trkpt lat="44.5182917" lon="10.8464483"><ele>193.8</ele><time>2026-04-11T06:44:41.421Z</time></trkpt><trkpt lat="44.5183917" lon="10.8465067"><ele>192.4</ele><time>2026-04-11T06:44:42.422Z</time></trkpt><trkpt lat="44.5184917" lon="10.846565"><ele>191.0</ele><time>2026-04-11T06:44:43.421Z</time></trkpt><trkpt lat="44.51859" lon="10.8466183"><ele>191.0</ele><time>2026-04-11T06:44:44.422Z</time></trkpt><trkpt lat="44.5186867" lon="10.846675"><ele>191.0</ele><time>2026-04-11T06:44:45.422Z</time></trkpt><trkpt lat="44.51878" lon="10.8467267"><ele>191.0</ele><time>2026-04-11T06:44:46.422Z</time></trkpt><trkpt lat="44.5188583" lon="10.84678"><ele>191.0</ele><time>2026-04-11T06:44:47.421Z</time></trkpt><trkpt lat="44.5189283" lon="10.846815"><ele>191.0</ele><time>2026-04-11T06:44:48.421Z</time></trkpt><trkpt lat="44.5189933" lon="10.8468317"><ele>191.0</ele><time>2026-04-11T06:44:49.422Z</time></trkpt><trkpt lat="44.5190967" lon="10.8467817"><ele>190.4</ele><time>2026-04-11T06:44:51.422Z</time></trkpt><trkpt lat="44.51917" lon="10.8466633"><ele>189.8</ele><time>2026-04-11T06:44:53.421Z</time></trkpt><trkpt lat="44.5192133" lon="10.8465217"><ele>189.20000000000002</ele><time>2026-04-11T06:44:55.421Z</time></trkpt><trkpt lat="44.5192483" lon="10.8463983"><ele>188.60000000000002</ele><time>2026-04-11T06:44:57.421Z</time></trkpt><trkpt lat="44.5192633" lon="10.846285"><ele>188.0</ele><time>2026-04-11T06:44:59.421Z</time></trkpt><trkpt lat="44.5192433" lon="10.84614"><ele>188.0</ele><time>2026-04-11T06:45:01.421Z</time></trkpt><trkpt lat="44.519175" lon="10.8459883"><ele>188.0</ele><time>2026-04-11T06:45:03.422Z</time></trkpt><trkpt lat="44.519095" lon="10.8458383"><ele>188.0</ele><time>2026-04-11T06:45:05.422Z</time></trkpt><trkpt lat="44.5190167" lon="10.8457133"><ele>188.0</ele><time>2026-04-11T06:45:07.422Z</time></trkpt><trkpt lat="44.5189417" lon="10.8456083"><ele>188.0</ele><time>2026-04-11T06:45:09.421Z</time></trkpt><trkpt lat="44.5188717" lon="10.8454883"><ele>188.0</ele><time>2026-04-11T06:45:11.422Z</time></trkpt><trkpt lat="44.5188067" lon="10.8453517"><ele>188.0</ele><time>2026-04-11T06:45:13.422Z</time></trkpt><trkpt lat="44.5187367" lon="10.8452567"><ele>188.0</ele><time>2026-04-11T06:45:15.421Z</time></trkpt><trkpt lat="44.51864" lon="10.845195"><ele>188.0</ele><time>2026-04-11T06:45:17.421Z</time></trkpt><trkpt lat="44.5185167" lon="10.845165"><ele>188.28571428571428</ele><time>2026-04-11T06:45:19.422Z</time></trkpt><trkpt lat="44.5184517" lon="10.8451433"><ele>188.57142857142856</ele><time>2026-04-11T06:45:20.422Z</time></trkpt><trkpt lat="44.51838" lon="10.8451117"><ele>188.85714285714286</ele><time>2026-04-11T06:45:21.422Z</time></trkpt><trkpt lat="44.5183067" lon="10.8450817"><ele>189.14285714285714</ele><time>2026-04-11T06:45:22.421Z</time></trkpt><trkpt lat="44.518225" lon="10.8450567"><ele>189.42857142857144</ele><time>2026-04-11T06:45:23.421Z</time></trkpt><trkpt lat="44.5181517" lon="10.845035"><ele>189.71428571428572</ele><time>2026-04-11T06:45:24.421Z</time></trkpt><trkpt lat="44.5180833" lon="10.8450283"><ele>190.0</ele><time>2026-04-11T06:45:25.422Z</time></trkpt><trkpt lat="44.51796" lon="10.8450283"><ele>190.71428571428572</ele><time>2026-04-11T06:45:27.421Z</time></trkpt><trkpt lat="44.5178917" lon="10.8450333"><ele>191.42857142857144</ele><time>2026-04-11T06:45:28.421Z</time></trkpt><trkpt lat="44.5178233" lon="10.84504"><ele>192.14285714285714</ele><time>2026-04-11T06:45:29.421Z</time></trkpt><trkpt lat="44.517755" lon="10.845045"><ele>192.85714285714286</ele><time>2026-04-11T06:45:30.421Z</time></trkpt><trkpt lat="44.5176817" lon="10.8450417"><ele>193.57142857142856</ele><time>2026-04-11T06:45:31.421Z</time></trkpt><trkpt lat="44.5176017" lon="10.8450317"><ele>194.28571428571428</ele><time>2026-04-11T06:45:32.422Z</time></trkpt><trkpt lat="44.5175217" lon="10.8450167"><ele>195.0</ele><time>2026-04-11T06:45:33.421Z</time></trkpt><trkpt lat="44.5174483" lon="10.845"><ele>195.0</ele><time>2026-04-11T06:45:34.421Z</time></trkpt><trkpt lat="44.51737" lon="10.8449783"><ele>195.0</ele><time>2026-04-11T06:45:35.421Z</time></trkpt><trkpt lat="44.51728" lon="10.8449583"><ele>195.0</ele><time>2026-04-11T06:45:36.421Z</time></trkpt><trkpt lat="44.5171883" lon="10.8449567"><ele>195.0</ele><time>2026-04-11T06:45:37.422Z</time></trkpt><trkpt lat="44.5171033" lon="10.8449567"><ele>195.0</ele><time>2026-04-11T06:45:38.422Z</time></trkpt><trkpt lat="44.5170333" lon="10.8449633"><ele>195.0</ele><time>2026-04-11T06:45:39.421Z</time></trkpt><trkpt lat="44.5169683" lon="10.84498"><ele>195.83333333333334</ele><time>2026-04-11T06:45:40.422Z</time></trkpt><trkpt lat="44.51686" lon="10.84505"><ele>196.66666666666669</ele><time>2026-04-11T06:45:42.421Z</time></trkpt><trkpt lat="44.5168033" lon="10.84511"><ele>197.5</ele><time>2026-04-11T06:45:43.422Z</time></trkpt><trkpt lat="44.5167517" lon="10.8452"><ele>198.33333333333334</ele><time>2026-04-11T06:45:44.422Z</time></trkpt><trkpt lat="44.5167" lon="10.845285"><ele>199.16666666666669</ele><time>2026-04-11T06:45:45.421Z</time></trkpt><trkpt lat="44.5166583" lon="10.845375"><ele>200.0</ele><time>2026-04-11T06:45:46.422Z</time></trkpt><trkpt lat="44.516615" lon="10.8454417"><ele>201.0</ele><time>2026-04-11T06:45:47.422Z</time></trkpt><trkpt lat="44.5165417" lon="10.845505"><ele>202.0</ele><time>2026-04-11T06:45:49.421Z</time></trkpt><trkpt lat="44.51643" lon="10.8454833"><ele>203.0</ele><time>2026-04-11T06:45:51.422Z</time></trkpt><trkpt lat="44.5163467" lon="10.8454733"><ele>204.0</ele><time>2026-04-11T06:45:52.421Z</time></trkpt><trkpt lat="44.5162633" lon="10.8454817"><ele>205.0</ele><time>2026-04-11T06:45:53.421Z</time></trkpt><trkpt lat="44.51618" lon="10.8454967"><ele>205.66666666666666</ele><time>2026-04-11T06:45:54.422Z</time></trkpt><trkpt lat="44.516095" lon="10.8455233"><ele>206.33333333333331</ele><time>2026-04-11T06:45:55.422Z</time></trkpt><trkpt lat="44.51601" lon="10.8455367"><ele>207.0</ele><time>2026-04-11T06:45:56.422Z</time></trkpt><trkpt lat="44.515925" lon="10.8455483"><ele>207.66666666666669</ele><time>2026-04-11T06:45:57.421Z</time></trkpt><trkpt lat="44.5158417" lon="10.8455617"><ele>208.33333333333334</ele><time>2026-04-11T06:45:58.421Z</time></trkpt><trkpt lat="44.515755" lon="10.8455767"><ele>209.0</ele><time>2026-04-11T06:45:59.422Z</time></trkpt><trkpt lat="44.515665" lon="10.8455967"><ele>209.0</ele><time>2026-04-11T06:46:00.421Z</time></trkpt><trkpt lat="44.5155767" lon="10.84561"><ele>209.0</ele><time>2026-04-11T06:46:01.422Z</time></trkpt><trkpt lat="44.5154833" lon="10.8456267"><ele>209.0</ele><time>2026-04-11T06:46:02.422Z</time></trkpt><trkpt lat="44.5153883" lon="10.845655"><ele>209.0</ele><time>2026-04-11T06:46:03.421Z</time></trkpt><trkpt lat="44.5153017" lon="10.8456767"><ele>209.0</ele><time>2026-04-11T06:46:04.421Z</time></trkpt><trkpt lat="44.51521" lon="10.845715"><ele>209.83333333333334</ele><time>2026-04-11T06:46:05.421Z</time></trkpt><trkpt lat="44.5151217" lon="10.845755"><ele>210.66666666666669</ele><time>2026-04-11T06:46:06.421Z</time></trkpt><trkpt lat="44.5150433" lon="10.84579"><ele>211.5</ele><time>2026-04-11T06:46:07.421Z</time></trkpt><trkpt lat="44.514965" lon="10.8458217"><ele>212.33333333333331</ele><time>2026-04-11T06:46:08.422Z</time></trkpt><trkpt lat="44.51488" lon="10.8458517"><ele>213.16666666666666</ele><time>2026-04-11T06:46:09.422Z</time></trkpt><trkpt lat="44.5147983" lon="10.8458683"><ele>214.0</ele><time>2026-04-11T06:46:10.421Z</time></trkpt><trkpt lat="44.514715" lon="10.84587"><ele>213.99999999999997</ele><time>2026-04-11T06:46:11.422Z</time></trkpt><trkpt lat="44.5146317" lon="10.8458733"><ele>214.0</ele><time>2026-04-11T06:46:12.421Z</time></trkpt><trkpt lat="44.5145517" lon="10.8458767"><ele>214.0</ele><time>2026-04-11T06:46:13.422Z</time></trkpt><trkpt lat="44.5144717" lon="10.8458817"><ele>214.0</ele><time>2026-04-11T06:46:14.421Z</time></trkpt><trkpt lat="44.5143917" lon="10.845875"><ele>213.99999999999997</ele><time>2026-04-11T06:46:15.421Z</time></trkpt><trkpt lat="44.51431" lon="10.8458617"><ele>214.0</ele><time>2026-04-11T06:46:16.421Z</time></trkpt><trkpt lat="44.5142367" lon="10.8458383"><ele>214.99999999999997</ele><time>2026-04-11T06:46:17.421Z</time></trkpt><trkpt lat="44.5141733" lon="10.845805"><ele>216.0</ele><time>2026-04-11T06:46:18.421Z</time></trkpt><trkpt lat="44.514065" lon="10.8457283"><ele>217.0</ele><time>2026-04-11T06:46:20.421Z</time></trkpt><trkpt lat="44.51401" lon="10.845685"><ele>218.0</ele><time>2026-04-11T06:46:21.421Z</time></trkpt><trkpt lat="44.5139033" lon="10.8456033"><ele>218.99999999999997</ele><time>2026-04-11T06:46:23.422Z</time></trkpt><trkpt lat="44.513845" lon="10.8455583"><ele>220.0</ele><time>2026-04-11T06:46:24.421Z</time></trkpt><trkpt lat="44.5137867" lon="10.8455067"><ele>221.66666666666666</ele><time>2026-04-11T06:46:25.421Z</time></trkpt><trkpt lat="44.5137083" lon="10.8454433"><ele>223.33333333333331</ele><time>2026-04-11T06:46:26.422Z</time></trkpt><trkpt lat="44.5136467" lon="10.8453833"><ele>225.0</ele><time>2026-04-11T06:46:27.421Z</time></trkpt><trkpt lat="44.51358" lon="10.8453167"><ele>226.66666666666669</ele><time>2026-04-11T06:46:28.422Z</time></trkpt><trkpt lat="44.5135067" lon="10.84525"><ele>228.33333333333334</ele><time>2026-04-11T06:46:29.422Z</time></trkpt><trkpt lat="44.51344" lon="10.8451933"><ele>230.0</ele><time>2026-04-11T06:46:30.421Z</time></trkpt><trkpt lat="44.513385" lon="10.84514"><ele>230.6</ele><time>2026-04-11T06:46:31.421Z</time></trkpt><trkpt lat="44.5133033" lon="10.84507"><ele>231.2</ele><time>2026-04-11T06:46:33.421Z</time></trkpt><trkpt lat="44.5132333" lon="10.84499"><ele>231.8</ele><time>2026-04-11T06:46:35.421Z</time></trkpt><trkpt lat="44.5131467" lon="10.8449133"><ele>232.4</ele><time>2026-04-11T06:46:37.422Z</time></trkpt><trkpt lat="44.5130433" lon="10.8448383"><ele>233.0</ele><time>2026-04-11T06:46:39.421Z</time></trkpt><trkpt lat="44.5129867" lon="10.84479"><ele>233.0</ele><time>2026-04-11T06:46:40.421Z</time></trkpt><trkpt lat="44.512925" lon="10.8447433"><ele>233.0</ele><time>2026-04-11T06:46:41.422Z</time></trkpt><trkpt lat="44.512865" lon="10.8446983"><ele>233.0</ele><time>2026-04-11T06:46:42.421Z</time></trkpt><trkpt lat="44.5128067" lon="10.8446433"><ele>233.0</ele><time>2026-04-11T06:46:43.422Z</time></trkpt><trkpt lat="44.5127467" lon="10.8445933"><ele>233.0</ele><time>2026-04-11T06:46:44.422Z</time></trkpt><trkpt lat="44.5126817" lon="10.844545"><ele>233.0</ele><time>2026-04-11T06:46:45.422Z</time></trkpt><trkpt lat="44.5126167" lon="10.8445083"><ele>233.0</ele><time>2026-04-11T06:46:46.421Z</time></trkpt><trkpt lat="44.512555" lon="10.8444767"><ele>234.83333333333334</ele><time>2026-04-11T06:46:47.421Z</time></trkpt><trkpt lat="44.5124483" lon="10.844455"><ele>236.66666666666669</ele><time>2026-04-11T06:46:49.422Z</time></trkpt><trkpt lat="44.5123733" lon="10.8444517"><ele>238.5</ele><time>2026-04-11T06:46:51.422Z</time></trkpt><trkpt lat="44.5123067" lon="10.8444567"><ele>240.33333333333331</ele><time>2026-04-11T06:46:53.422Z</time></trkpt><trkpt lat="44.5122433" lon="10.844455"><ele>242.16666666666666</ele><time>2026-04-11T06:46:56.422Z</time></trkpt><trkpt lat="44.51218" lon="10.8444567"><ele>244.0</ele><time>2026-04-11T06:46:59.421Z</time></trkpt><trkpt lat="44.5121017" lon="10.844475"><ele>245.49999999999997</ele><time>2026-04-11T06:47:01.421Z</time></trkpt><trkpt lat="44.512015" lon="10.8444717"><ele>247.0</ele><time>2026-04-11T06:47:03.421Z</time></trkpt><trkpt lat="44.5119483" lon="10.8444633"><ele>248.5</ele><time>2026-04-11T06:47:04.422Z</time></trkpt><trkpt lat="44.5118817" lon="10.8444633"><ele>250.0</ele><time>2026-04-11T06:47:05.421Z</time></trkpt><trkpt lat="44.5118133" lon="10.84447"><ele>251.49999999999997</ele><time>2026-04-11T06:47:06.421Z</time></trkpt><trkpt lat="44.511705" lon="10.84448"><ele>253.0</ele><time>2026-04-11T06:47:08.421Z</time></trkpt><trkpt lat="44.5116417" lon="10.8444883"><ele>252.99999999999997</ele><time>2026-04-11T06:47:09.421Z</time></trkpt><trkpt lat="44.511575" lon="10.844495"><ele>253.0</ele><time>2026-04-11T06:47:10.421Z</time></trkpt><trkpt lat="44.5115083" lon="10.8445083"><ele>253.0</ele><time>2026-04-11T06:47:11.422Z</time></trkpt><trkpt lat="44.5114383" lon="10.84451"><ele>253.0</ele><time>2026-04-11T06:47:12.421Z</time></trkpt><trkpt lat="44.5113717" lon="10.84452"><ele>252.99999999999997</ele><time>2026-04-11T06:47:13.42Z</time></trkpt><trkpt lat="44.5113067" lon="10.8445317"><ele>253.0</ele><time>2026-04-11T06:47:14.42Z</time></trkpt><trkpt lat="44.511195" lon="10.8445583"><ele>254.99999999999997</ele><time>2026-04-11T06:47:16.42Z</time></trkpt><trkpt lat="44.5111033" lon="10.8445583"><ele>257.0</ele><time>2026-04-11T06:47:18.42Z</time></trkpt><trkpt lat="44.51101" lon="10.84454"><ele>259.0</ele><time>2026-04-11T06:47:20.421Z</time></trkpt><trkpt lat="44.5109067" lon="10.8445433"><ele>261.0</ele><time>2026-04-11T06:47:22.42Z</time></trkpt><trkpt lat="44.5108433" lon="10.844555"><ele>263.0</ele><time>2026-04-11T06:47:23.42Z</time></trkpt><trkpt lat="44.5107733" lon="10.844575"><ele>265.0</ele><time>2026-04-11T06:47:24.42Z</time></trkpt><trkpt lat="44.5106983" lon="10.8445867"><ele>265.0</ele><time>2026-04-11T06:47:25.42Z</time></trkpt><trkpt lat="44.5106067" lon="10.8446017"><ele>265.0</ele><time>2026-04-11T06:47:26.421Z</time></trkpt><trkpt lat="44.51051" lon="10.8446183"><ele>265.0</ele><time>2026-04-11T06:47:27.42Z</time></trkpt><trkpt lat="44.510415" lon="10.8446483"><ele>265.0</ele><time>2026-04-11T06:47:28.42Z</time></trkpt><trkpt lat="44.5103233" lon="10.8446817"><ele>265.0</ele><time>2026-04-11T06:47:29.421Z</time></trkpt><trkpt lat="44.51023" lon="10.8447167"><ele>265.8</ele><time>2026-04-11T06:47:30.42Z</time></trkpt><trkpt lat="44.5101467" lon="10.844735"><ele>266.6</ele><time>2026-04-11T06:47:31.42Z</time></trkpt><trkpt lat="44.5100533" lon="10.8447283"><ele>267.4</ele><time>2026-04-11T06:47:32.42Z</time></trkpt><trkpt lat="44.509955" lon="10.844705"><ele>268.2</ele><time>2026-04-11T06:47:33.42Z</time></trkpt><trkpt lat="44.5098467" lon="10.844665"><ele>269.0</ele><time>2026-04-11T06:47:34.42Z</time></trkpt><trkpt lat="44.5097467" lon="10.8446233"><ele>269.0</ele><time>2026-04-11T06:47:35.42Z</time></trkpt><trkpt lat="44.5096633" lon="10.8445833"><ele>269.0</ele><time>2026-04-11T06:47:36.421Z</time></trkpt><trkpt lat="44.50959" lon="10.844545"><ele>269.0</ele><time>2026-04-11T06:47:37.421Z</time></trkpt><trkpt lat="44.5095317" lon="10.8445"><ele>269.0</ele><time>2026-04-11T06:47:38.42Z</time></trkpt><trkpt lat="44.5094617" lon="10.844395"><ele>269.0</ele><time>2026-04-11T06:47:40.42Z</time></trkpt><trkpt lat="44.50945" lon="10.844225"><ele>269.57142857142856</ele><time>2026-04-11T06:47:42.42Z</time></trkpt><trkpt lat="44.5094433" lon="10.8441283"><ele>270.14285714285717</ele><time>2026-04-11T06:47:43.42Z</time></trkpt><trkpt lat="44.5094317" lon="10.8440333"><ele>270.7142857142857</ele><time>2026-04-11T06:47:44.42Z</time></trkpt><trkpt lat="44.5094233" lon="10.843935"><ele>271.2857142857143</ele><time>2026-04-11T06:47:45.42Z</time></trkpt><trkpt lat="44.5094117" lon="10.8438267"><ele>271.8571428571429</ele><time>2026-04-11T06:47:46.42Z</time></trkpt><trkpt lat="44.5093933" lon="10.8437317"><ele>272.42857142857144</ele><time>2026-04-11T06:47:47.42Z</time></trkpt><trkpt lat="44.509375" lon="10.8436467"><ele>273.0</ele><time>2026-04-11T06:47:48.421Z</time></trkpt><trkpt lat="44.5093517" lon="10.8434817"><ele>271.6666666666667</ele><time>2026-04-11T06:47:50.421Z</time></trkpt><trkpt lat="44.5093533" lon="10.843305"><ele>270.3333333333333</ele><time>2026-04-11T06:47:52.421Z</time></trkpt><trkpt lat="44.5093517" lon="10.8432017"><ele>269.0</ele><time>2026-04-11T06:47:53.42Z</time></trkpt><trkpt lat="44.509345" lon="10.8431133"><ele>267.66666666666663</ele><time>2026-04-11T06:47:54.42Z</time></trkpt><trkpt lat="44.5093317" lon="10.8430267"><ele>266.3333333333333</ele><time>2026-04-11T06:47:55.421Z</time></trkpt><trkpt lat="44.50931" lon="10.8428667"><ele>265.0</ele><time>2026-04-11T06:47:57.42Z</time></trkpt><trkpt lat="44.5093167" lon="10.842675"><ele>263.0</ele><time>2026-04-11T06:47:59.42Z</time></trkpt><trkpt lat="44.5093183" lon="10.842565"><ele>261.0</ele><time>2026-04-11T06:48:00.42Z</time></trkpt><trkpt lat="44.5093167" lon="10.8424517"><ele>259.0</ele><time>2026-04-11T06:48:01.421Z</time></trkpt><trkpt lat="44.5093117" lon="10.8423417"><ele>257.0</ele><time>2026-04-11T06:48:02.421Z</time></trkpt><trkpt lat="44.5092983" lon="10.8422433"><ele>254.99999999999997</ele><time>2026-04-11T06:48:03.421Z</time></trkpt><trkpt lat="44.5092433" lon="10.8421017"><ele>253.0</ele><time>2026-04-11T06:48:05.42Z</time></trkpt><trkpt lat="44.5092067" lon="10.8420233"><ele>253.00000000000003</ele><time>2026-04-11T06:48:06.42Z</time></trkpt><trkpt lat="44.5091617" lon="10.8419417"><ele>253.0</ele><time>2026-04-11T06:48:07.421Z</time></trkpt><trkpt lat="44.509115" lon="10.8418617"><ele>253.00000000000003</ele><time>2026-04-11T06:48:08.421Z</time></trkpt><trkpt lat="44.5090667" lon="10.8417917"><ele>253.00000000000003</ele><time>2026-04-11T06:48:09.42Z</time></trkpt><trkpt lat="44.5090117" lon="10.8417333"><ele>253.0</ele><time>2026-04-11T06:48:10.42Z</time></trkpt><trkpt lat="44.5089533" lon="10.84169"><ele>253.00000000000003</ele><time>2026-04-11T06:48:11.42Z</time></trkpt><trkpt lat="44.5088917" lon="10.84164"><ele>253.00000000000003</ele><time>2026-04-11T06:48:12.42Z</time></trkpt><trkpt lat="44.5088283" lon="10.84159"><ele>252.33333333333331</ele><time>2026-04-11T06:48:13.42Z</time></trkpt><trkpt lat="44.5087617" lon="10.8415333"><ele>251.66666666666666</ele><time>2026-04-11T06:48:14.42Z</time></trkpt><trkpt lat="44.508695" lon="10.84148"><ele>251.0</ele><time>2026-04-11T06:48:15.421Z</time></trkpt><trkpt lat="44.5086283" lon="10.8414217"><ele>250.33333333333331</ele><time>2026-04-11T06:48:16.42Z</time></trkpt><trkpt lat="44.5085633" lon="10.841375"><ele>249.66666666666666</ele><time>2026-04-11T06:48:17.42Z</time></trkpt><trkpt lat="44.508445" lon="10.84129"><ele>249.0</ele><time>2026-04-11T06:48:19.421Z</time></trkpt><trkpt lat="44.508385" lon="10.8412533"><ele>249.0</ele><time>2026-04-11T06:48:20.42Z</time></trkpt><trkpt lat="44.5082567" lon="10.8412033"><ele>248.99999999999997</ele><time>2026-04-11T06:48:22.42Z</time></trkpt><trkpt lat="44.50819" lon="10.8411733"><ele>248.99999999999997</ele><time>2026-04-11T06:48:23.42Z</time></trkpt><trkpt lat="44.5081283" lon="10.8411433"><ele>249.0</ele><time>2026-04-11T06:48:24.42Z</time></trkpt><trkpt lat="44.50802" lon="10.84107"><ele>249.0</ele><time>2026-04-11T06:48:26.42Z</time></trkpt><trkpt lat="44.507935" lon="10.8409733"><ele>246.33333333333334</ele><time>2026-04-11T06:48:28.42Z</time></trkpt><trkpt lat="44.5078967" lon="10.8408533"><ele>243.66666666666669</ele><time>2026-04-11T06:48:30.42Z</time></trkpt><trkpt lat="44.5079583" lon="10.8407183"><ele>241.0</ele><time>2026-04-11T06:48:32.42Z</time></trkpt><trkpt lat="44.5080267" lon="10.84066"><ele>238.33333333333334</ele><time>2026-04-11T06:48:33.421Z</time></trkpt><trkpt lat="44.5080933" lon="10.8406233"><ele>235.66666666666669</ele><time>2026-04-11T06:48:34.42Z</time></trkpt><trkpt lat="44.5081633" lon="10.8405883"><ele>233.0</ele><time>2026-04-11T06:48:35.421Z</time></trkpt><trkpt lat="44.5082217" lon="10.8405467"><ele>233.00000000000003</ele><time>2026-04-11T06:48:36.421Z</time></trkpt><trkpt lat="44.5082783" lon="10.8404967"><ele>233.0</ele><time>2026-04-11T06:48:37.42Z</time></trkpt><trkpt lat="44.50833" lon="10.8404333"><ele>233.0</ele><time>2026-04-11T06:48:38.42Z</time></trkpt><trkpt lat="44.5083683" lon="10.8403583"><ele>233.0</ele><time>2026-04-11T06:48:39.421Z</time></trkpt><trkpt lat="44.5084133" lon="10.84019"><ele>233.00000000000003</ele><time>2026-04-11T06:48:41.42Z</time></trkpt><trkpt lat="44.5084383" lon="10.8401083"><ele>233.0</ele><time>2026-04-11T06:48:42.42Z</time></trkpt><trkpt lat="44.5084783" lon="10.83994"><ele>230.0</ele><time>2026-04-11T06:48:44.42Z</time></trkpt><trkpt lat="44.5085017" lon="10.8398533"><ele>227.0</ele><time>2026-04-11T06:48:45.42Z</time></trkpt><trkpt lat="44.5085283" lon="10.8397617"><ele>224.0</ele><time>2026-04-11T06:48:46.42Z</time></trkpt><trkpt lat="44.5085583" lon="10.8396733"><ele>221.0</ele><time>2026-04-11T06:48:47.421Z</time></trkpt><trkpt lat="44.5085833" lon="10.8395817"><ele>218.0</ele><time>2026-04-11T06:48:48.42Z</time></trkpt><trkpt lat="44.5086083" lon="10.839485"><ele>215.0</ele><time>2026-04-11T06:48:49.42Z</time></trkpt><trkpt lat="44.508635" lon="10.8393867"><ele>212.0</ele><time>2026-04-11T06:48:50.42Z</time></trkpt><trkpt lat="44.508665" lon="10.8392833"><ele>210.16666666666669</ele><time>2026-04-11T06:48:51.42Z</time></trkpt><trkpt lat="44.508695" lon="10.83918"><ele>208.33333333333334</ele><time>2026-04-11T06:48:52.42Z</time></trkpt><trkpt lat="44.5087183" lon="10.8390733"><ele>206.5</ele><time>2026-04-11T06:48:53.42Z</time></trkpt><trkpt lat="44.5087417" lon="10.8389617"><ele>204.66666666666669</ele><time>2026-04-11T06:48:54.42Z</time></trkpt><trkpt lat="44.50877" lon="10.83886"><ele>202.83333333333334</ele><time>2026-04-11T06:48:55.42Z</time></trkpt><trkpt lat="44.5087983" lon="10.8387483"><ele>201.0</ele><time>2026-04-11T06:48:56.421Z</time></trkpt><trkpt lat="44.5088233" lon="10.8386483"><ele>201.0</ele><time>2026-04-11T06:48:57.42Z</time></trkpt><trkpt lat="44.5088533" lon="10.8385567"><ele>201.0</ele><time>2026-04-11T06:48:58.421Z</time></trkpt><trkpt lat="44.5088817" lon="10.8384567"><ele>201.0</ele><time>2026-04-11T06:48:59.421Z</time></trkpt><trkpt lat="44.508905" lon="10.8383533"><ele>201.0</ele><time>2026-04-11T06:49:00.42Z</time></trkpt><trkpt lat="44.50893" lon="10.8382517"><ele>201.0</ele><time>2026-04-11T06:49:01.42Z</time></trkpt><trkpt lat="44.50896" lon="10.838155"><ele>201.0</ele><time>2026-04-11T06:49:02.42Z</time></trkpt><trkpt lat="44.5089833" lon="10.8380583"><ele>199.33333333333334</ele><time>2026-04-11T06:49:03.421Z</time></trkpt><trkpt lat="44.50901" lon="10.8379617"><ele>197.66666666666666</ele><time>2026-04-11T06:49:04.42Z</time></trkpt><trkpt lat="44.509035" lon="10.837875"><ele>196.0</ele><time>2026-04-11T06:49:05.42Z</time></trkpt><trkpt lat="44.5090567" lon="10.8377817"><ele>194.33333333333331</ele><time>2026-04-11T06:49:06.42Z</time></trkpt><trkpt lat="44.5090833" lon="10.8376783"><ele>192.66666666666666</ele><time>2026-04-11T06:49:07.42Z</time></trkpt><trkpt lat="44.5091133" lon="10.8375717"><ele>191.0</ele><time>2026-04-11T06:49:08.42Z</time></trkpt><trkpt lat="44.5091417" lon="10.8374567"><ele>189.60000000000002</ele><time>2026-04-11T06:49:09.42Z</time></trkpt><trkpt lat="44.5091633" lon="10.8373367"><ele>188.2</ele><time>2026-04-11T06:49:10.42Z</time></trkpt><trkpt lat="44.5091883" lon="10.83722"><ele>186.8</ele><time>2026-04-11T06:49:11.421Z</time></trkpt><trkpt lat="44.5092167" lon="10.8370883"><ele>185.39999999999998</ele><time>2026-04-11T06:49:12.42Z</time></trkpt><trkpt lat="44.5092417" lon="10.8369617"><ele>184.0</ele><time>2026-04-11T06:49:13.421Z</time></trkpt><trkpt lat="44.5092717" lon="10.8368367"><ele>182.66666666666669</ele><time>2026-04-11T06:49:14.42Z</time></trkpt><trkpt lat="44.5093067" lon="10.8367183"><ele>181.33333333333334</ele><time>2026-04-11T06:49:15.42Z</time></trkpt><trkpt lat="44.509335" lon="10.8366"><ele>180.0</ele><time>2026-04-11T06:49:16.421Z</time></trkpt><trkpt lat="44.5093667" lon="10.836485"><ele>178.66666666666666</ele><time>2026-04-11T06:49:17.42Z</time></trkpt><trkpt lat="44.5093917" lon="10.8363717"><ele>177.33333333333331</ele><time>2026-04-11T06:49:18.421Z</time></trkpt><trkpt lat="44.5094217" lon="10.8362617"><ele>176.0</ele><time>2026-04-11T06:49:19.421Z</time></trkpt><trkpt lat="44.5094567" lon="10.8361567"><ele>176.0</ele><time>2026-04-11T06:49:20.421Z</time></trkpt><trkpt lat="44.5094917" lon="10.8360567"><ele>176.0</ele><time>2026-04-11T06:49:21.421Z</time></trkpt><trkpt lat="44.50952" lon="10.8359433"><ele>176.0</ele><time>2026-04-11T06:49:22.42Z</time></trkpt><trkpt lat="44.509545" lon="10.8358283"><ele>176.0</ele><time>2026-04-11T06:49:23.42Z</time></trkpt><trkpt lat="44.5095767" lon="10.8357133"><ele>176.0</ele><time>2026-04-11T06:49:24.42Z</time></trkpt><trkpt lat="44.509605" lon="10.835605"><ele>176.0</ele><time>2026-04-11T06:49:25.42Z</time></trkpt><trkpt lat="44.509635" lon="10.8355"><ele>175.0</ele><time>2026-04-11T06:49:26.42Z</time></trkpt><trkpt lat="44.509665" lon="10.8354067"><ele>174.0</ele><time>2026-04-11T06:49:27.42Z</time></trkpt><trkpt lat="44.5097" lon="10.8353233"><ele>173.0</ele><time>2026-04-11T06:49:28.42Z</time></trkpt><trkpt lat="44.5097483" lon="10.8352617"><ele>172.0</ele><time>2026-04-11T06:49:29.421Z</time></trkpt><trkpt lat="44.5098517" lon="10.8352333"><ele>171.0</ele><time>2026-04-11T06:49:31.421Z</time></trkpt><trkpt lat="44.5099183" lon="10.8351983"><ele>170.0</ele><time>2026-04-11T06:49:35.42Z</time></trkpt><trkpt lat="44.50989" lon="10.8351167"><ele>169.0</ele><time>2026-04-11T06:49:37.421Z</time></trkpt><trkpt lat="44.5097983" lon="10.8350067"><ele>169.0</ele><time>2026-04-11T06:49:39.42Z</time></trkpt><trkpt lat="44.5097333" lon="10.8349367"><ele>169.0</ele><time>2026-04-11T06:49:40.42Z</time></trkpt><trkpt lat="44.5096533" lon="10.8348617"><ele>169.0</ele><time>2026-04-11T06:49:41.421Z</time></trkpt><trkpt lat="44.5095717" lon="10.83478"><ele>169.0</ele><time>2026-04-11T06:49:42.42Z</time></trkpt><trkpt lat="44.50949" lon="10.8347"><ele>169.0</ele><time>2026-04-11T06:49:43.421Z</time></trkpt><trkpt lat="44.5094033" lon="10.83462"><ele>169.0</ele><time>2026-04-11T06:49:44.42Z</time></trkpt><trkpt lat="44.5093083" lon="10.834545"><ele>169.0</ele><time>2026-04-11T06:49:45.421Z</time></trkpt><trkpt lat="44.5092133" lon="10.834465"><ele>169.0</ele><time>2026-04-11T06:49:46.42Z</time></trkpt><trkpt lat="44.5091183" lon="10.8343883"><ele>169.0</ele><time>2026-04-11T06:49:47.42Z</time></trkpt><trkpt lat="44.5090233" lon="10.8343067"><ele>169.0</ele><time>2026-04-11T06:49:48.42Z</time></trkpt><trkpt lat="44.5089217" lon="10.834235"><ele>168.6</ele><time>2026-04-11T06:49:49.421Z</time></trkpt><trkpt lat="44.5088233" lon="10.8341717"><ele>168.2</ele><time>2026-04-11T06:49:50.42Z</time></trkpt><trkpt lat="44.5087283" lon="10.83411"><ele>167.79999999999998</ele><time>2026-04-11T06:49:51.42Z</time></trkpt><trkpt lat="44.508625" lon="10.83404"><ele>167.39999999999998</ele><time>2026-04-11T06:49:52.42Z</time></trkpt><trkpt lat="44.5085217" lon="10.8339733"><ele>167.0</ele><time>2026-04-11T06:49:53.42Z</time></trkpt><trkpt lat="44.508415" lon="10.8338917"><ele>167.0</ele><time>2026-04-11T06:49:54.42Z</time></trkpt><trkpt lat="44.5083133" lon="10.8338017"><ele>167.0</ele><time>2026-04-11T06:49:55.42Z</time></trkpt><trkpt lat="44.508225" lon="10.8337083"><ele>167.0</ele><time>2026-04-11T06:49:56.42Z</time></trkpt><trkpt lat="44.5081367" lon="10.8336083"><ele>167.0</ele><time>2026-04-11T06:49:57.42Z</time></trkpt><trkpt lat="44.50806" lon="10.8334967"><ele>166.75</ele><time>2026-04-11T06:49:58.42Z</time></trkpt><trkpt lat="44.5079883" lon="10.8333683"><ele>166.5</ele><time>2026-04-11T06:49:59.421Z</time></trkpt><trkpt lat="44.5079233" lon="10.83324"><ele>166.25</ele><time>2026-04-11T06:50:00.42Z</time></trkpt><trkpt lat="44.50786" lon="10.8331083"><ele>166.0</ele><time>2026-04-11T06:50:01.42Z</time></trkpt><trkpt lat="44.5077917" lon="10.8329767"><ele>166.5</ele><time>2026-04-11T06:50:02.421Z</time></trkpt><trkpt lat="44.5077233" lon="10.8328433"><ele>167.0</ele><time>2026-04-11T06:50:03.42Z</time></trkpt><trkpt lat="44.5076483" lon="10.8327117"><ele>167.5</ele><time>2026-04-11T06:50:04.42Z</time></trkpt><trkpt lat="44.5075817" lon="10.8325867"><ele>168.0</ele><time>2026-04-11T06:50:05.42Z</time></trkpt><trkpt lat="44.507515" lon="10.8324667"><ele>168.2</ele><time>2026-04-11T06:50:06.421Z</time></trkpt><trkpt lat="44.5074467" lon="10.832355"><ele>168.4</ele><time>2026-04-11T06:50:07.42Z</time></trkpt><trkpt lat="44.5073717" lon="10.8322417"><ele>168.6</ele><time>2026-04-11T06:50:08.42Z</time></trkpt><trkpt lat="44.5072867" lon="10.832135"><ele>168.79999999999998</ele><time>2026-04-11T06:50:09.42Z</time></trkpt><trkpt lat="44.507195" lon="10.8320383"><ele>169.0</ele><time>2026-04-11T06:50:10.421Z</time></trkpt><trkpt lat="44.5071083" lon="10.8319517"><ele>169.39999999999998</ele><time>2026-04-11T06:50:11.42Z</time></trkpt><trkpt lat="44.5070183" lon="10.831875"><ele>169.8</ele><time>2026-04-11T06:50:12.42Z</time></trkpt><trkpt lat="44.5069233" lon="10.8318"><ele>170.2</ele><time>2026-04-11T06:50:13.42Z</time></trkpt><trkpt lat="44.5068317" lon="10.83171"><ele>170.60000000000002</ele><time>2026-04-11T06:50:14.42Z</time></trkpt><trkpt lat="44.5067483" lon="10.8316017"><ele>171.0</ele><time>2026-04-11T06:50:15.42Z</time></trkpt><trkpt lat="44.50668" lon="10.8314717"><ele>171.0</ele><time>2026-04-11T06:50:16.42Z</time></trkpt><trkpt lat="44.5066283" lon="10.8313267"><ele>171.0</ele><time>2026-04-11T06:50:17.42Z</time></trkpt><trkpt lat="44.5065767" lon="10.8311567"><ele>171.0</ele><time>2026-04-11T06:50:18.42Z</time></trkpt><trkpt lat="44.5065333" lon="10.8309833"><ele>171.0</ele><time>2026-04-11T06:50:19.42Z</time></trkpt><trkpt lat="44.5064917" lon="10.8307933"><ele>171.25</ele><time>2026-04-11T06:50:20.42Z</time></trkpt><trkpt lat="44.5064417" lon="10.8306067"><ele>171.5</ele><time>2026-04-11T06:50:21.42Z</time></trkpt><trkpt lat="44.5063933" lon="10.8304233"><ele>171.75</ele><time>2026-04-11T06:50:22.42Z</time></trkpt><trkpt lat="44.5063383" lon="10.83024"><ele>172.0</ele><time>2026-04-11T06:50:23.42Z</time></trkpt><trkpt lat="44.5062767" lon="10.830055"><ele>171.75</ele><time>2026-04-11T06:50:24.421Z</time></trkpt><trkpt lat="44.506215" lon="10.82985"><ele>171.5</ele><time>2026-04-11T06:50:25.42Z</time></trkpt><trkpt lat="44.5061583" lon="10.8296583"><ele>171.25</ele><time>2026-04-11T06:50:26.42Z</time></trkpt><trkpt lat="44.5061033" lon="10.8294767"><ele>171.0</ele><time>2026-04-11T06:50:27.42Z</time></trkpt><trkpt lat="44.5060533" lon="10.82932"><ele>171.5</ele><time>2026-04-11T06:50:28.42Z</time></trkpt><trkpt lat="44.50599" lon="10.829165"><ele>172.0</ele><time>2026-04-11T06:50:29.42Z</time></trkpt><trkpt lat="44.50591" lon="10.8290217"><ele>172.5</ele><time>2026-04-11T06:50:30.42Z</time></trkpt><trkpt lat="44.5058167" lon="10.8288917"><ele>173.0</ele><time>2026-04-11T06:50:31.42Z</time></trkpt><trkpt lat="44.5057167" lon="10.82877"><ele>173.0</ele><time>2026-04-11T06:50:32.421Z</time></trkpt><trkpt lat="44.5056167" lon="10.82865"><ele>173.0</ele><time>2026-04-11T06:50:33.42Z</time></trkpt><trkpt lat="44.5055167" lon="10.8285333"><ele>173.0</ele><time>2026-04-11T06:50:34.421Z</time></trkpt><trkpt lat="44.5054283" lon="10.8284167"><ele>173.0</ele><time>2026-04-11T06:50:35.421Z</time></trkpt><trkpt lat="44.50533" lon="10.828305"><ele>174.5</ele><time>2026-04-11T06:50:36.421Z</time></trkpt><trkpt lat="44.5052383" lon="10.8281917"><ele>176.0</ele><time>2026-04-11T06:50:37.42Z</time></trkpt><trkpt lat="44.5051417" lon="10.8280833"><ele>177.5</ele><time>2026-04-11T06:50:38.42Z</time></trkpt><trkpt lat="44.5050483" lon="10.8279633"><ele>179.0</ele><time>2026-04-11T06:50:39.421Z</time></trkpt><trkpt lat="44.5049567" lon="10.827855"><ele>179.0</ele><time>2026-04-11T06:50:40.42Z</time></trkpt><trkpt lat="44.5048667" lon="10.8277517"><ele>179.0</ele><time>2026-04-11T06:50:41.421Z</time></trkpt><trkpt lat="44.504775" lon="10.8276433"><ele>179.0</ele><time>2026-04-11T06:50:42.421Z</time></trkpt><trkpt lat="44.504685" lon="10.827535"><ele>179.0</ele><time>2026-04-11T06:50:43.421Z</time></trkpt><trkpt lat="44.50459" lon="10.827425"><ele>180.25</ele><time>2026-04-11T06:50:44.421Z</time></trkpt><trkpt lat="44.5045067" lon="10.8273167"><ele>181.5</ele><time>2026-04-11T06:50:45.421Z</time></trkpt><trkpt lat="44.5044433" lon="10.8271867"><ele>182.75</ele><time>2026-04-11T06:50:46.42Z</time></trkpt><trkpt lat="44.5043883" lon="10.82703"><ele>184.0</ele><time>2026-04-11T06:50:47.42Z</time></trkpt><trkpt lat="44.50433" lon="10.8268517"><ele>183.33333333333334</ele><time>2026-04-11T06:50:48.42Z</time></trkpt><trkpt lat="44.5042783" lon="10.8266633"><ele>182.66666666666666</ele><time>2026-04-11T06:50:49.42Z</time></trkpt><trkpt lat="44.5042283" lon="10.826455"><ele>182.0</ele><time>2026-04-11T06:50:50.42Z</time></trkpt><trkpt lat="44.50418" lon="10.8262483"><ele>182.0</ele><time>2026-04-11T06:50:51.42Z</time></trkpt><trkpt lat="44.5041317" lon="10.826045"><ele>182.0</ele><time>2026-04-11T06:50:52.42Z</time></trkpt><trkpt lat="44.5040917" lon="10.8258667"><ele>182.0</ele><time>2026-04-11T06:50:53.42Z</time></trkpt><trkpt lat="44.50406" lon="10.8257067"><ele>182.0</ele><time>2026-04-11T06:50:54.42Z</time></trkpt><trkpt lat="44.50402" lon="10.8255683"><ele>181.8</ele><time>2026-04-11T06:50:55.421Z</time></trkpt><trkpt lat="44.5039633" lon="10.82546"><ele>181.6</ele><time>2026-04-11T06:50:56.421Z</time></trkpt><trkpt lat="44.50388" lon="10.8253733"><ele>181.4</ele><time>2026-04-11T06:50:57.42Z</time></trkpt><trkpt lat="44.5037767" lon="10.8253"><ele>181.20000000000002</ele><time>2026-04-11T06:50:58.42Z</time></trkpt><trkpt lat="44.5036667" lon="10.8252317"><ele>181.0</ele><time>2026-04-11T06:50:59.421Z</time></trkpt><trkpt lat="44.50355" lon="10.8251533"><ele>181.0</ele><time>2026-04-11T06:51:00.421Z</time></trkpt><trkpt lat="44.5034317" lon="10.8250733"><ele>181.0</ele><time>2026-04-11T06:51:01.42Z</time></trkpt><trkpt lat="44.5033167" lon="10.8249767"><ele>181.0</ele><time>2026-04-11T06:51:02.42Z</time></trkpt><trkpt lat="44.5032017" lon="10.8248867"><ele>181.0</ele><time>2026-04-11T06:51:03.42Z</time></trkpt><trkpt lat="44.5030883" lon="10.82479"><ele>181.0</ele><time>2026-04-11T06:51:04.42Z</time></trkpt><trkpt lat="44.5029783" lon="10.824695"><ele>181.0</ele><time>2026-04-11T06:51:05.42Z</time></trkpt><trkpt lat="44.50288" lon="10.8246017"><ele>181.0</ele><time>2026-04-11T06:51:06.42Z</time></trkpt><trkpt lat="44.5028" lon="10.8245117"><ele>181.0</ele><time>2026-04-11T06:51:07.42Z</time></trkpt><trkpt lat="44.502745" lon="10.82442"><ele>181.0</ele><time>2026-04-11T06:51:08.42Z</time></trkpt><trkpt lat="44.5026967" lon="10.8243283"><ele>181.5</ele><time>2026-04-11T06:51:09.42Z</time></trkpt><trkpt lat="44.50267" lon="10.8242317"><ele>182.0</ele><time>2026-04-11T06:51:10.421Z</time></trkpt><trkpt lat="44.5026617" lon="10.82413"><ele>182.5</ele><time>2026-04-11T06:51:11.42Z</time></trkpt><trkpt lat="44.5026917" lon="10.8240333"><ele>183.0</ele><time>2026-04-11T06:51:12.421Z</time></trkpt><trkpt lat="44.5027517" lon="10.8239383"><ele>183.5</ele><time>2026-04-11T06:51:13.42Z</time></trkpt><trkpt lat="44.50283" lon="10.82386"><ele>184.0</ele><time>2026-04-11T06:51:14.42Z</time></trkpt><trkpt lat="44.5028883" lon="10.8237583"><ele>183.39999999999998</ele><time>2026-04-11T06:51:15.421Z</time></trkpt><trkpt lat="44.5029517" lon="10.8236467"><ele>182.8</ele><time>2026-04-11T06:51:16.421Z</time></trkpt><trkpt lat="44.5030067" lon="10.8235267"><ele>182.2</ele><time>2026-04-11T06:51:17.42Z</time></trkpt><trkpt lat="44.5030367" lon="10.823385"><ele>181.60000000000002</ele><time>2026-04-11T06:51:18.42Z</time></trkpt><trkpt lat="44.50302" lon="10.82323"><ele>181.0</ele><time>2026-04-11T06:51:19.421Z</time></trkpt><trkpt lat="44.5030083" lon="10.823085"><ele>181.0</ele><time>2026-04-11T06:51:20.421Z</time></trkpt><trkpt lat="44.502985" lon="10.8229217"><ele>181.0</ele><time>2026-04-11T06:51:21.42Z</time></trkpt><trkpt lat="44.5029583" lon="10.82274"><ele>181.0</ele><time>2026-04-11T06:51:22.421Z</time></trkpt><trkpt lat="44.5029333" lon="10.8225417"><ele>181.0</ele><time>2026-04-11T06:51:23.42Z</time></trkpt><trkpt lat="44.5029067" lon="10.8223417"><ele>181.5</ele><time>2026-04-11T06:51:24.42Z</time></trkpt><trkpt lat="44.5028767" lon="10.8221567"><ele>182.0</ele><time>2026-04-11T06:51:25.421Z</time></trkpt><trkpt lat="44.5028467" lon="10.8219683"><ele>182.5</ele><time>2026-04-11T06:51:26.42Z</time></trkpt><trkpt lat="44.5028217" lon="10.8217933"><ele>183.0</ele><time>2026-04-11T06:51:27.42Z</time></trkpt><trkpt lat="44.5027983" lon="10.8216183"><ele>183.5</ele><time>2026-04-11T06:51:28.42Z</time></trkpt><trkpt lat="44.502775" lon="10.821445"><ele>184.0</ele><time>2026-04-11T06:51:29.42Z</time></trkpt><trkpt lat="44.5027667" lon="10.8212767"><ele>184.5</ele><time>2026-04-11T06:51:30.421Z</time></trkpt><trkpt lat="44.5027667" lon="10.8211083"><ele>185.0</ele><time>2026-04-11T06:51:31.421Z</time></trkpt><trkpt lat="44.502785" lon="10.8209317"><ele>185.25</ele><time>2026-04-11T06:51:32.42Z</time></trkpt><trkpt lat="44.502805" lon="10.8207583"><ele>185.5</ele><time>2026-04-11T06:51:33.421Z</time></trkpt><trkpt lat="44.5028217" lon="10.820585"><ele>185.75</ele><time>2026-04-11T06:51:34.421Z</time></trkpt><trkpt lat="44.5028283" lon="10.8204117"><ele>186.0</ele><time>2026-04-11T06:51:35.421Z</time></trkpt><trkpt lat="44.502835" lon="10.8202417"><ele>187.0</ele><time>2026-04-11T06:51:36.421Z</time></trkpt><trkpt lat="44.5028317" lon="10.820075"><ele>188.0</ele><time>2026-04-11T06:51:37.42Z</time></trkpt><trkpt lat="44.5028133" lon="10.8199183"><ele>189.0</ele><time>2026-04-11T06:51:38.42Z</time></trkpt><trkpt lat="44.5027967" lon="10.8197567"><ele>190.0</ele><time>2026-04-11T06:51:39.42Z</time></trkpt><trkpt lat="44.5027733" lon="10.8196217"><ele>191.0</ele><time>2026-04-11T06:51:40.421Z</time></trkpt><trkpt lat="44.5027433" lon="10.8194933"><ele>191.0</ele><time>2026-04-11T06:51:41.421Z</time></trkpt><trkpt lat="44.502715" lon="10.8193733"><ele>191.0</ele><time>2026-04-11T06:51:42.42Z</time></trkpt><trkpt lat="44.5026833" lon="10.8192417"><ele>191.0</ele><time>2026-04-11T06:51:43.42Z</time></trkpt><trkpt lat="44.50265" lon="10.819095"><ele>191.0</ele><time>2026-04-11T06:51:44.42Z</time></trkpt><trkpt lat="44.5026117" lon="10.8189483"><ele>191.0</ele><time>2026-04-11T06:51:45.42Z</time></trkpt><trkpt lat="44.502565" lon="10.81882"><ele>191.60000000000002</ele><time>2026-04-11T06:51:46.42Z</time></trkpt><trkpt lat="44.5025267" lon="10.8186983"><ele>192.2</ele><time>2026-04-11T06:51:47.42Z</time></trkpt><trkpt lat="44.5024983" lon="10.8185933"><ele>192.8</ele><time>2026-04-11T06:51:48.42Z</time></trkpt><trkpt lat="44.50251" lon="10.8184267"><ele>193.39999999999998</ele><time>2026-04-11T06:51:50.42Z</time></trkpt><trkpt lat="44.5025433" lon="10.8183283"><ele>194.0</ele><time>2026-04-11T06:51:51.421Z</time></trkpt><trkpt lat="44.502585" lon="10.818215"><ele>194.25</ele><time>2026-04-11T06:51:52.42Z</time></trkpt><trkpt lat="44.5026383" lon="10.8180933"><ele>194.5</ele><time>2026-04-11T06:51:53.42Z</time></trkpt><trkpt lat="44.5026983" lon="10.8179517"><ele>194.75</ele><time>2026-04-11T06:51:54.421Z</time></trkpt><trkpt lat="44.5027583" lon="10.8178017"><ele>195.0</ele><time>2026-04-11T06:51:55.421Z</time></trkpt><trkpt lat="44.5028133" lon="10.8176517"><ele>195.25</ele><time>2026-04-11T06:51:56.42Z</time></trkpt><trkpt lat="44.5028667" lon="10.8174967"><ele>195.5</ele><time>2026-04-11T06:51:57.42Z</time></trkpt><trkpt lat="44.5029217" lon="10.81734"><ele>195.75</ele><time>2026-04-11T06:51:58.421Z</time></trkpt><trkpt lat="44.50297" lon="10.8171867"><ele>196.0</ele><time>2026-04-11T06:51:59.421Z</time></trkpt><trkpt lat="44.5030083" lon="10.8170233"><ele>197.75</ele><time>2026-04-11T06:52:00.42Z</time></trkpt><trkpt lat="44.5030333" lon="10.8168683"><ele>199.5</ele><time>2026-04-11T06:52:01.42Z</time></trkpt><trkpt lat="44.5030433" lon="10.81671"><ele>201.25</ele><time>2026-04-11T06:52:02.42Z</time></trkpt><trkpt lat="44.503045" lon="10.8165567"><ele>203.0</ele><time>2026-04-11T06:52:03.42Z</time></trkpt><trkpt lat="44.5030433" lon="10.8163917"><ele>203.75</ele><time>2026-04-11T06:52:04.42Z</time></trkpt><trkpt lat="44.503035" lon="10.81623"><ele>204.5</ele><time>2026-04-11T06:52:05.42Z</time></trkpt><trkpt lat="44.50302" lon="10.8160683"><ele>205.25</ele><time>2026-04-11T06:52:06.42Z</time></trkpt><trkpt lat="44.50301" lon="10.815905"><ele>206.0</ele><time>2026-04-11T06:52:07.42Z</time></trkpt><trkpt lat="44.5030083" lon="10.815745"><ele>207.0</ele><time>2026-04-11T06:52:08.421Z</time></trkpt><trkpt lat="44.50301" lon="10.8155867"><ele>208.0</ele><time>2026-04-11T06:52:09.42Z</time></trkpt><trkpt lat="44.503005" lon="10.8154183"><ele>209.0</ele><time>2026-04-11T06:52:10.42Z</time></trkpt><trkpt lat="44.5030017" lon="10.8152533"><ele>210.0</ele><time>2026-04-11T06:52:11.42Z</time></trkpt><trkpt lat="44.5029917" lon="10.8150933"><ele>211.25</ele><time>2026-04-11T06:52:12.42Z</time></trkpt><trkpt lat="44.5029733" lon="10.81493"><ele>212.5</ele><time>2026-04-11T06:52:13.42Z</time></trkpt><trkpt lat="44.5029533" lon="10.81477"><ele>213.75</ele><time>2026-04-11T06:52:14.42Z</time></trkpt><trkpt lat="44.502925" lon="10.8146083"><ele>215.0</ele><time>2026-04-11T06:52:15.421Z</time></trkpt><trkpt lat="44.5028883" lon="10.8144467"><ele>218.75</ele><time>2026-04-11T06:52:16.42Z</time></trkpt><trkpt lat="44.5028467" lon="10.81428"><ele>222.5</ele><time>2026-04-11T06:52:17.421Z</time></trkpt><trkpt lat="44.5028083" lon="10.8141117"><ele>226.25</ele><time>2026-04-11T06:52:18.42Z</time></trkpt><trkpt lat="44.5027833" lon="10.813955"><ele>230.0</ele><time>2026-04-11T06:52:19.421Z</time></trkpt><trkpt lat="44.5027467" lon="10.8137767"><ele>230.0</ele><time>2026-04-11T06:52:20.42Z</time></trkpt><trkpt lat="44.5027067" lon="10.8135967"><ele>230.0</ele><time>2026-04-11T06:52:21.42Z</time></trkpt><trkpt lat="44.502665" lon="10.8134183"><ele>230.0</ele><time>2026-04-11T06:52:22.421Z</time></trkpt><trkpt lat="44.5026283" lon="10.8132283"><ele>230.0</ele><time>2026-04-11T06:52:23.42Z</time></trkpt><trkpt lat="44.5025933" lon="10.8130367"><ele>233.0</ele><time>2026-04-11T06:52:24.42Z</time></trkpt><trkpt lat="44.502555" lon="10.8128533"><ele>236.0</ele><time>2026-04-11T06:52:25.42Z</time></trkpt><trkpt lat="44.5025217" lon="10.8126617"><ele>239.0</ele><time>2026-04-11T06:52:26.42Z</time></trkpt><trkpt lat="44.502485" lon="10.8124817"><ele>242.0</ele><time>2026-04-11T06:52:27.42Z</time></trkpt><trkpt lat="44.5024567" lon="10.812315"><ele>243.39999999999998</ele><time>2026-04-11T06:52:28.42Z</time></trkpt><trkpt lat="44.5024283" lon="10.8121533"><ele>244.79999999999998</ele><time>2026-04-11T06:52:29.421Z</time></trkpt><trkpt lat="44.5024017" lon="10.8120133"><ele>246.2</ele><time>2026-04-11T06:52:30.421Z</time></trkpt><trkpt lat="44.5023967" lon="10.8119017"><ele>247.6</ele><time>2026-04-11T06:52:31.42Z</time></trkpt><trkpt lat="44.5024183" lon="10.811815"><ele>249.0</ele><time>2026-04-11T06:52:32.42Z</time></trkpt><trkpt lat="44.5025117" lon="10.8116617"><ele>250.79999999999998</ele><time>2026-04-11T06:52:34.42Z</time></trkpt><trkpt lat="44.502595" lon="10.8115933"><ele>252.59999999999997</ele><time>2026-04-11T06:52:35.421Z</time></trkpt><trkpt lat="44.5026883" lon="10.8115367"><ele>254.4</ele><time>2026-04-11T06:52:36.42Z</time></trkpt><trkpt lat="44.5027933" lon="10.8114833"><ele>256.2</ele><time>2026-04-11T06:52:37.42Z</time></trkpt><trkpt lat="44.5028983" lon="10.811455"><ele>258.0</ele><time>2026-04-11T06:52:38.42Z</time></trkpt><trkpt lat="44.503" lon="10.8114567"><ele>259.5</ele><time>2026-04-11T06:52:39.421Z</time></trkpt><trkpt lat="44.50309" lon="10.8114817"><ele>261.0</ele><time>2026-04-11T06:52:40.42Z</time></trkpt><trkpt lat="44.5031967" lon="10.8115483"><ele>262.5</ele><time>2026-04-11T06:52:41.42Z</time></trkpt><trkpt lat="44.5033133" lon="10.811635"><ele>264.0</ele><time>2026-04-11T06:52:42.42Z</time></trkpt><trkpt lat="44.5034217" lon="10.81172"><ele>264.0</ele><time>2026-04-11T06:52:43.42Z</time></trkpt><trkpt lat="44.5035133" lon="10.8118033"><ele>264.0</ele><time>2026-04-11T06:52:44.421Z</time></trkpt><trkpt lat="44.5035983" lon="10.8118817"><ele>264.0</ele><time>2026-04-11T06:52:45.42Z</time></trkpt><trkpt lat="44.5036867" lon="10.8119567"><ele>264.0</ele><time>2026-04-11T06:52:46.421Z</time></trkpt><trkpt lat="44.5037783" lon="10.8120183"><ele>264.0</ele><time>2026-04-11T06:52:47.42Z</time></trkpt><trkpt lat="44.5038867" lon="10.8120683"><ele>265.4</ele><time>2026-04-11T06:52:48.42Z</time></trkpt><trkpt lat="44.5039883" lon="10.8120983"><ele>266.79999999999995</ele><time>2026-04-11T06:52:49.42Z</time></trkpt><trkpt lat="44.504085" lon="10.8121217"><ele>268.20000000000005</ele><time>2026-04-11T06:52:50.42Z</time></trkpt><trkpt lat="44.5041767" lon="10.8121517"><ele>269.6</ele><time>2026-04-11T06:52:51.42Z</time></trkpt><trkpt lat="44.5042617" lon="10.8122067"><ele>271.0</ele><time>2026-04-11T06:52:52.42Z</time></trkpt><trkpt lat="44.50435" lon="10.8122867"><ele>271.0</ele><time>2026-04-11T06:52:53.421Z</time></trkpt><trkpt lat="44.504435" lon="10.8123817"><ele>271.0</ele><time>2026-04-11T06:52:54.42Z</time></trkpt><trkpt lat="44.5045" lon="10.81249"><ele>271.0</ele><time>2026-04-11T06:52:55.421Z</time></trkpt><trkpt lat="44.5045583" lon="10.812605"><ele>271.0</ele><time>2026-04-11T06:52:56.42Z</time></trkpt><trkpt lat="44.5046217" lon="10.812725"><ele>271.0</ele><time>2026-04-11T06:52:57.42Z</time></trkpt><trkpt lat="44.5046933" lon="10.81284"><ele>274.0</ele><time>2026-04-11T06:52:58.42Z</time></trkpt><trkpt lat="44.50478" lon="10.8129333"><ele>277.0</ele><time>2026-04-11T06:52:59.421Z</time></trkpt><trkpt lat="44.5048733" lon="10.8130083"><ele>280.0</ele><time>2026-04-11T06:53:00.42Z</time></trkpt><trkpt lat="44.5049733" lon="10.8130583"><ele>283.0</ele><time>2026-04-11T06:53:01.42Z</time></trkpt><trkpt lat="44.505085" lon="10.8130783"><ele>286.0</ele><time>2026-04-11T06:53:02.42Z</time></trkpt><trkpt lat="44.5052067" lon="10.8130967"><ele>286.0</ele><time>2026-04-11T06:53:03.42Z</time></trkpt><trkpt lat="44.5053117" lon="10.8131183"><ele>286.0</ele><time>2026-04-11T06:53:04.421Z</time></trkpt><trkpt lat="44.5054017" lon="10.8131217"><ele>286.0</ele><time>2026-04-11T06:53:05.421Z</time></trkpt><trkpt lat="44.5054917" lon="10.8131133"><ele>286.0</ele><time>2026-04-11T06:53:06.421Z</time></trkpt><trkpt lat="44.50557" lon="10.8130867"><ele>286.0</ele><time>2026-04-11T06:53:07.42Z</time></trkpt><trkpt lat="44.505635" lon="10.81301"><ele>289.0</ele><time>2026-04-11T06:53:08.42Z</time></trkpt><trkpt lat="44.5056917" lon="10.81292"><ele>292.0</ele><time>2026-04-11T06:53:09.42Z</time></trkpt><trkpt lat="44.5057283" lon="10.8128183"><ele>295.0</ele><time>2026-04-11T06:53:10.421Z</time></trkpt><trkpt lat="44.5057567" lon="10.8127267"><ele>298.0</ele><time>2026-04-11T06:53:11.421Z</time></trkpt><trkpt lat="44.5057917" lon="10.8125633"><ele>301.0</ele><time>2026-04-11T06:53:13.42Z</time></trkpt><trkpt lat="44.50579" lon="10.8124317"><ele>301.16666666666663</ele><time>2026-04-11T06:53:15.42Z</time></trkpt><trkpt lat="44.5057517" lon="10.8123117"><ele>301.3333333333333</ele><time>2026-04-11T06:53:17.419Z</time></trkpt><trkpt lat="44.5056717" lon="10.81218"><ele>301.5</ele><time>2026-04-11T06:53:19.419Z</time></trkpt><trkpt lat="44.5056183" lon="10.81211"><ele>301.6666666666667</ele><time>2026-04-11T06:53:20.419Z</time></trkpt><trkpt lat="44.5055667" lon="10.812045"><ele>301.83333333333337</ele><time>2026-04-11T06:53:21.42Z</time></trkpt><trkpt lat="44.50551" lon="10.8119767"><ele>302.0</ele><time>2026-04-11T06:53:22.419Z</time></trkpt><trkpt lat="44.50545" lon="10.8119233"><ele>301.7142857142857</ele><time>2026-04-11T06:53:23.419Z</time></trkpt><trkpt lat="44.50538" lon="10.8118717"><ele>301.42857142857144</ele><time>2026-04-11T06:53:24.419Z</time></trkpt><trkpt lat="44.50531" lon="10.8118217"><ele>301.1428571428571</ele><time>2026-04-11T06:53:25.42Z</time></trkpt><trkpt lat="44.5052467" lon="10.8117683"><ele>300.8571428571429</ele><time>2026-04-11T06:53:26.42Z</time></trkpt><trkpt lat="44.5051833" lon="10.811715"><ele>300.57142857142856</ele><time>2026-04-11T06:53:27.419Z</time></trkpt><trkpt lat="44.5051317" lon="10.81166"><ele>300.2857142857143</ele><time>2026-04-11T06:53:28.419Z</time></trkpt><trkpt lat="44.5050767" lon="10.811595"><ele>300.0</ele><time>2026-04-11T06:53:29.419Z</time></trkpt><trkpt lat="44.5050233" lon="10.8115117"><ele>301.0</ele><time>2026-04-11T06:53:30.42Z</time></trkpt><trkpt lat="44.5049883" lon="10.8114333"><ele>302.0</ele><time>2026-04-11T06:53:31.42Z</time></trkpt><trkpt lat="44.5049467" lon="10.8113267"><ele>303.0</ele><time>2026-04-11T06:53:32.42Z</time></trkpt><trkpt lat="44.5049083" lon="10.8112283"><ele>304.0</ele><time>2026-04-11T06:53:33.42Z</time></trkpt><trkpt lat="44.5048683" lon="10.8111367"><ele>305.0</ele><time>2026-04-11T06:53:34.42Z</time></trkpt><trkpt lat="44.5048283" lon="10.8110383"><ele>306.0</ele><time>2026-04-11T06:53:35.419Z</time></trkpt><trkpt lat="44.5047917" lon="10.81095"><ele>306.0</ele><time>2026-04-11T06:53:36.419Z</time></trkpt><trkpt lat="44.50475" lon="10.8108633"><ele>306.0</ele><time>2026-04-11T06:53:37.42Z</time></trkpt><trkpt lat="44.504705" lon="10.8107783"><ele>306.0</ele><time>2026-04-11T06:53:38.42Z</time></trkpt><trkpt lat="44.5046633" lon="10.8106933"><ele>306.0</ele><time>2026-04-11T06:53:39.419Z</time></trkpt><trkpt lat="44.5046283" lon="10.8105983"><ele>306.0</ele><time>2026-04-11T06:53:40.419Z</time></trkpt><trkpt lat="44.5045967" lon="10.8104833"><ele>306.0</ele><time>2026-04-11T06:53:41.42Z</time></trkpt><trkpt lat="44.5045767" lon="10.8103583"><ele>305.2</ele><time>2026-04-11T06:53:42.419Z</time></trkpt><trkpt lat="44.5045567" lon="10.8102333"><ele>304.40000000000003</ele><time>2026-04-11T06:53:43.419Z</time></trkpt><trkpt lat="44.504535" lon="10.8100933"><ele>303.6</ele><time>2026-04-11T06:53:44.419Z</time></trkpt><trkpt lat="44.5045117" lon="10.8099383"><ele>302.8</ele><time>2026-04-11T06:53:45.419Z</time></trkpt><trkpt lat="44.5044883" lon="10.809785"><ele>302.0</ele><time>2026-04-11T06:53:46.419Z</time></trkpt><trkpt lat="44.5044667" lon="10.8096183"><ele>304.25</ele><time>2026-04-11T06:53:47.419Z</time></trkpt><trkpt lat="44.5044383" lon="10.8094517"><ele>306.5</ele><time>2026-04-11T06:53:48.419Z</time></trkpt><trkpt lat="44.50441" lon="10.80927"><ele>308.75</ele><time>2026-04-11T06:53:49.419Z</time></trkpt><trkpt lat="44.504375" lon="10.809075"><ele>311.0</ele><time>2026-04-11T06:53:50.419Z</time></trkpt><trkpt lat="44.5043417" lon="10.8088833"><ele>312.8</ele><time>2026-04-11T06:53:51.419Z</time></trkpt><trkpt lat="44.504315" lon="10.8087183"><ele>314.6</ele><time>2026-04-11T06:53:52.419Z</time></trkpt><trkpt lat="44.504275" lon="10.8085917"><ele>316.4</ele><time>2026-04-11T06:53:53.42Z</time></trkpt><trkpt lat="44.5042333" lon="10.80848"><ele>318.2</ele><time>2026-04-11T06:53:54.419Z</time></trkpt><trkpt lat="44.5041883" lon="10.8083767"><ele>320.0</ele><time>2026-04-11T06:53:55.419Z</time></trkpt><trkpt lat="44.5041517" lon="10.80828"><ele>320.8</ele><time>2026-04-11T06:53:56.42Z</time></trkpt><trkpt lat="44.50412" lon="10.8081883"><ele>321.6</ele><time>2026-04-11T06:53:57.419Z</time></trkpt><trkpt lat="44.5040983" lon="10.8080883"><ele>322.4</ele><time>2026-04-11T06:53:58.419Z</time></trkpt><trkpt lat="44.504025" lon="10.807955"><ele>323.2</ele><time>2026-04-11T06:54:00.419Z</time></trkpt><trkpt lat="44.5039033" lon="10.807875"><ele>324.0</ele><time>2026-04-11T06:54:02.419Z</time></trkpt><trkpt lat="44.5038267" lon="10.807835"><ele>325.2</ele><time>2026-04-11T06:54:03.42Z</time></trkpt><trkpt lat="44.5037417" lon="10.8078017"><ele>326.4</ele><time>2026-04-11T06:54:04.419Z</time></trkpt><trkpt lat="44.503645" lon="10.80777"><ele>327.6</ele><time>2026-04-11T06:54:05.419Z</time></trkpt><trkpt lat="44.5035567" lon="10.8077417"><ele>328.8</ele><time>2026-04-11T06:54:06.419Z</time></trkpt><trkpt lat="44.5034733" lon="10.8077067"><ele>330.0</ele><time>2026-04-11T06:54:07.419Z</time></trkpt><trkpt lat="44.5033917" lon="10.8076567"><ele>332.0</ele><time>2026-04-11T06:54:08.419Z</time></trkpt><trkpt lat="44.5033067" lon="10.8075867"><ele>334.0</ele><time>2026-04-11T06:54:09.42Z</time></trkpt><trkpt lat="44.50322" lon="10.8075017"><ele>336.0</ele><time>2026-04-11T06:54:10.42Z</time></trkpt><trkpt lat="44.5031333" lon="10.8074133"><ele>338.0</ele><time>2026-04-11T06:54:11.419Z</time></trkpt><trkpt lat="44.50304" lon="10.8073317"><ele>340.0</ele><time>2026-04-11T06:54:12.42Z</time></trkpt><trkpt lat="44.502955" lon="10.807255"><ele>341.0</ele><time>2026-04-11T06:54:13.419Z</time></trkpt><trkpt lat="44.5028783" lon="10.8071817"><ele>342.0</ele><time>2026-04-11T06:54:14.42Z</time></trkpt><trkpt lat="44.50281" lon="10.8071083"><ele>343.0</ele><time>2026-04-11T06:54:15.42Z</time></trkpt><trkpt lat="44.5027433" lon="10.8070383"><ele>344.0</ele><time>2026-04-11T06:54:16.42Z</time></trkpt><trkpt lat="44.5026817" lon="10.80696"><ele>345.0</ele><time>2026-04-11T06:54:17.419Z</time></trkpt><trkpt lat="44.502625" lon="10.80687"><ele>346.0</ele><time>2026-04-11T06:54:18.42Z</time></trkpt><trkpt lat="44.5025767" lon="10.8067817"><ele>346.0</ele><time>2026-04-11T06:54:19.419Z</time></trkpt><trkpt lat="44.5025383" lon="10.8066867"><ele>346.0</ele><time>2026-04-11T06:54:20.419Z</time></trkpt><trkpt lat="44.5025067" lon="10.8065883"><ele>346.0</ele><time>2026-04-11T06:54:21.419Z</time></trkpt><trkpt lat="44.5024833" lon="10.806485"><ele>346.0</ele><time>2026-04-11T06:54:22.42Z</time></trkpt><trkpt lat="44.5024733" lon="10.8063683"><ele>346.0</ele><time>2026-04-11T06:54:23.419Z</time></trkpt><trkpt lat="44.5024533" lon="10.80625"><ele>346.0</ele><time>2026-04-11T06:54:24.419Z</time></trkpt><trkpt lat="44.5024367" lon="10.8061333"><ele>346.0</ele><time>2026-04-11T06:54:25.42Z</time></trkpt><trkpt lat="44.5024167" lon="10.80602"><ele>346.0</ele><time>2026-04-11T06:54:26.419Z</time></trkpt><trkpt lat="44.5024067" lon="10.8059117"><ele>346.0</ele><time>2026-04-11T06:54:27.419Z</time></trkpt><trkpt lat="44.5023967" lon="10.8058017"><ele>346.0</ele><time>2026-04-11T06:54:28.42Z</time></trkpt><trkpt lat="44.502385" lon="10.8056983"><ele>346.0</ele><time>2026-04-11T06:54:29.42Z</time></trkpt><trkpt lat="44.5023583" lon="10.8055967"><ele>346.0</ele><time>2026-04-11T06:54:30.42Z</time></trkpt><trkpt lat="44.5023267" lon="10.8055033"><ele>346.0</ele><time>2026-04-11T06:54:31.42Z</time></trkpt><trkpt lat="44.5022883" lon="10.805395"><ele>346.0</ele><time>2026-04-11T06:54:32.419Z</time></trkpt><trkpt lat="44.5022467" lon="10.8052967"><ele>346.0</ele><time>2026-04-11T06:54:33.42Z</time></trkpt><trkpt lat="44.5021983" lon="10.8052"><ele>346.0</ele><time>2026-04-11T06:54:34.419Z</time></trkpt><trkpt lat="44.50215" lon="10.8051083"><ele>346.0</ele><time>2026-04-11T06:54:35.419Z</time></trkpt><trkpt lat="44.5021133" lon="10.8050283"><ele>346.0</ele><time>2026-04-11T06:54:36.419Z</time></trkpt><trkpt lat="44.50207" lon="10.8049467"><ele>344.7142857142857</ele><time>2026-04-11T06:54:37.419Z</time></trkpt><trkpt lat="44.502025" lon="10.8048633"><ele>343.42857142857144</ele><time>2026-04-11T06:54:38.42Z</time></trkpt><trkpt lat="44.50199" lon="10.8047783"><ele>342.14285714285717</ele><time>2026-04-11T06:54:39.419Z</time></trkpt><trkpt lat="44.5019467" lon="10.804695"><ele>340.8571428571429</ele><time>2026-04-11T06:54:40.419Z</time></trkpt><trkpt lat="44.501905" lon="10.80461"><ele>339.57142857142856</ele><time>2026-04-11T06:54:41.42Z</time></trkpt><trkpt lat="44.501865" lon="10.8045317"><ele>338.28571428571433</ele><time>2026-04-11T06:54:42.419Z</time></trkpt><trkpt lat="44.5018233" lon="10.8044567"><ele>337.0</ele><time>2026-04-11T06:54:43.42Z</time></trkpt><trkpt lat="44.5017833" lon="10.8043867"><ele>336.66666666666663</ele><time>2026-04-11T06:54:44.42Z</time></trkpt><trkpt lat="44.5016933" lon="10.8042867"><ele>336.3333333333333</ele><time>2026-04-11T06:54:46.419Z</time></trkpt><trkpt lat="44.5016383" lon="10.8042433"><ele>336.0</ele><time>2026-04-11T06:54:47.419Z</time></trkpt><trkpt lat="44.5015317" lon="10.80416"><ele>335.6666666666667</ele><time>2026-04-11T06:54:49.42Z</time></trkpt><trkpt lat="44.501475" lon="10.8041167"><ele>335.33333333333337</ele><time>2026-04-11T06:54:50.419Z</time></trkpt><trkpt lat="44.5014133" lon="10.80407"><ele>335.0</ele><time>2026-04-11T06:54:51.42Z</time></trkpt><trkpt lat="44.5013567" lon="10.8040283"><ele>334.99999999999994</ele><time>2026-04-11T06:54:52.42Z</time></trkpt><trkpt lat="44.5012983" lon="10.8039917"><ele>335.0</ele><time>2026-04-11T06:54:53.419Z</time></trkpt><trkpt lat="44.50124" lon="10.8039567"><ele>335.0</ele><time>2026-04-11T06:54:54.42Z</time></trkpt><trkpt lat="44.50118" lon="10.8039183"><ele>335.0</ele><time>2026-04-11T06:54:55.42Z</time></trkpt><trkpt lat="44.501115" lon="10.8038783"><ele>335.0</ele><time>2026-04-11T06:54:56.419Z</time></trkpt><trkpt lat="44.5010467" lon="10.8038417"><ele>334.99999999999994</ele><time>2026-04-11T06:54:57.419Z</time></trkpt><trkpt lat="44.5009767" lon="10.8038033"><ele>335.0</ele><time>2026-04-11T06:54:58.419Z</time></trkpt><trkpt lat="44.5009083" lon="10.8037617"><ele>332.99999999999994</ele><time>2026-04-11T06:54:59.419Z</time></trkpt><trkpt lat="44.500845" lon="10.80371"><ele>331.0</ele><time>2026-04-11T06:55:00.419Z</time></trkpt><trkpt lat="44.5007767" lon="10.803665"><ele>329.0</ele><time>2026-04-11T06:55:01.42Z</time></trkpt><trkpt lat="44.5007133" lon="10.803615"><ele>327.0</ele><time>2026-04-11T06:55:02.419Z</time></trkpt><trkpt lat="44.5006483" lon="10.8035683"><ele>325.0</ele><time>2026-04-11T06:55:03.419Z</time></trkpt><trkpt lat="44.500585" lon="10.80352"><ele>322.99999999999994</ele><time>2026-04-11T06:55:04.42Z</time></trkpt><trkpt lat="44.5005133" lon="10.8034717"><ele>321.0</ele><time>2026-04-11T06:55:05.419Z</time></trkpt><trkpt lat="44.5004417" lon="10.803415"><ele>316.6</ele><time>2026-04-11T06:55:06.419Z</time></trkpt><trkpt lat="44.5003533" lon="10.8033517"><ele>312.20000000000005</ele><time>2026-04-11T06:55:07.42Z</time></trkpt><trkpt lat="44.500275" lon="10.8032833"><ele>307.79999999999995</ele><time>2026-04-11T06:55:08.419Z</time></trkpt><trkpt lat="44.5001933" lon="10.8032133"><ele>303.4</ele><time>2026-04-11T06:55:09.419Z</time></trkpt><trkpt lat="44.500115" lon="10.8031583"><ele>299.0</ele><time>2026-04-11T06:55:10.419Z</time></trkpt><trkpt lat="44.5000367" lon="10.8031"><ele>299.0</ele><time>2026-04-11T06:55:11.42Z</time></trkpt><trkpt lat="44.4999533" lon="10.8030267"><ele>299.0</ele><time>2026-04-11T06:55:12.42Z</time></trkpt><trkpt lat="44.499865" lon="10.8029517"><ele>299.0</ele><time>2026-04-11T06:55:13.419Z</time></trkpt><trkpt lat="44.499765" lon="10.8028617"><ele>299.0</ele><time>2026-04-11T06:55:14.419Z</time></trkpt><trkpt lat="44.4996683" lon="10.802775"><ele>299.0</ele><time>2026-04-11T06:55:15.419Z</time></trkpt><trkpt lat="44.4995667" lon="10.80269"><ele>298.0</ele><time>2026-04-11T06:55:16.419Z</time></trkpt><trkpt lat="44.49948" lon="10.802595"><ele>297.0</ele><time>2026-04-11T06:55:17.419Z</time></trkpt><trkpt lat="44.4994133" lon="10.80247"><ele>296.0</ele><time>2026-04-11T06:55:18.42Z</time></trkpt><trkpt lat="44.499355" lon="10.8023383"><ele>295.0</ele><time>2026-04-11T06:55:19.419Z</time></trkpt><trkpt lat="44.4992983" lon="10.8022183"><ele>294.0</ele><time>2026-04-11T06:55:20.419Z</time></trkpt><trkpt lat="44.4992167" lon="10.8021217"><ele>294.0</ele><time>2026-04-11T06:55:21.419Z</time></trkpt><trkpt lat="44.499115" lon="10.80205"><ele>294.0</ele><time>2026-04-11T06:55:22.419Z</time></trkpt><trkpt lat="44.4990033" lon="10.8019883"><ele>294.0</ele><time>2026-04-11T06:55:23.42Z</time></trkpt><trkpt lat="44.4989083" lon="10.8019333"><ele>294.0</ele><time>2026-04-11T06:55:24.419Z</time></trkpt><trkpt lat="44.4988333" lon="10.8018633"><ele>294.0</ele><time>2026-04-11T06:55:25.419Z</time></trkpt><trkpt lat="44.4987633" lon="10.8017683"><ele>295.8</ele><time>2026-04-11T06:55:26.42Z</time></trkpt><trkpt lat="44.4986983" lon="10.8016567"><ele>297.59999999999997</ele><time>2026-04-11T06:55:27.419Z</time></trkpt><trkpt lat="44.4986417" lon="10.80155"><ele>299.4</ele><time>2026-04-11T06:55:28.42Z</time></trkpt><trkpt lat="44.4986067" lon="10.801425"><ele>301.2</ele><time>2026-04-11T06:55:29.42Z</time></trkpt><trkpt lat="44.498575" lon="10.8013067"><ele>303.0</ele><time>2026-04-11T06:55:30.419Z</time></trkpt><trkpt lat="44.4985433" lon="10.8011717"><ele>303.0</ele><time>2026-04-11T06:55:31.419Z</time></trkpt><trkpt lat="44.4985117" lon="10.801055"><ele>303.0</ele><time>2026-04-11T06:55:32.419Z</time></trkpt><trkpt lat="44.4984667" lon="10.80095"><ele>303.0</ele><time>2026-04-11T06:55:33.42Z</time></trkpt><trkpt lat="44.4984" lon="10.800855"><ele>303.0</ele><time>2026-04-11T06:55:34.419Z</time></trkpt><trkpt lat="44.498315" lon="10.8007667"><ele>303.0</ele><time>2026-04-11T06:55:35.419Z</time></trkpt><trkpt lat="44.49822" lon="10.8006917"><ele>304.5</ele><time>2026-04-11T06:55:36.419Z</time></trkpt><trkpt lat="44.4981283" lon="10.800595"><ele>306.0</ele><time>2026-04-11T06:55:37.42Z</time></trkpt><trkpt lat="44.4980383" lon="10.8004533"><ele>307.5</ele><time>2026-04-11T06:55:38.42Z</time></trkpt><trkpt lat="44.4979533" lon="10.800295"><ele>309.0</ele><time>2026-04-11T06:55:39.419Z</time></trkpt><trkpt lat="44.4978717" lon="10.8001533"><ele>309.8</ele><time>2026-04-11T06:55:40.419Z</time></trkpt><trkpt lat="44.4978017" lon="10.800035"><ele>310.59999999999997</ele><time>2026-04-11T06:55:41.419Z</time></trkpt><trkpt lat="44.4977283" lon="10.7999333"><ele>311.4</ele><time>2026-04-11T06:55:42.419Z</time></trkpt><trkpt lat="44.497675" lon="10.799825"><ele>312.2</ele><time>2026-04-11T06:55:43.419Z</time></trkpt><trkpt lat="44.4976267" lon="10.799715"><ele>313.0</ele><time>2026-04-11T06:55:44.419Z</time></trkpt><trkpt lat="44.497585" lon="10.799585"><ele>313.0</ele><time>2026-04-11T06:55:45.419Z</time></trkpt><trkpt lat="44.4975383" lon="10.7994517"><ele>313.0</ele><time>2026-04-11T06:55:46.42Z</time></trkpt><trkpt lat="44.4974767" lon="10.799305"><ele>313.0</ele><time>2026-04-11T06:55:47.42Z</time></trkpt><trkpt lat="44.49742" lon="10.79916"><ele>313.0</ele><time>2026-04-11T06:55:48.419Z</time></trkpt><trkpt lat="44.4973683" lon="10.799035"><ele>313.0</ele><time>2026-04-11T06:55:49.42Z</time></trkpt><trkpt lat="44.497335" lon="10.7989067"><ele>313.6</ele><time>2026-04-11T06:55:50.42Z</time></trkpt><trkpt lat="44.497325" lon="10.798785"><ele>314.20000000000005</ele><time>2026-04-11T06:55:51.419Z</time></trkpt><trkpt lat="44.497325" lon="10.7986567"><ele>314.8</ele><time>2026-04-11T06:55:52.419Z</time></trkpt><trkpt lat="44.4973583" lon="10.7985233"><ele>315.40000000000003</ele><time>2026-04-11T06:55:53.419Z</time></trkpt><trkpt lat="44.4974033" lon="10.798385"><ele>316.0</ele><time>2026-04-11T06:55:54.419Z</time></trkpt><trkpt lat="44.49743" lon="10.7982517"><ele>318.0</ele><time>2026-04-11T06:55:55.419Z</time></trkpt><trkpt lat="44.49744" lon="10.7981233"><ele>320.0</ele><time>2026-04-11T06:55:56.419Z</time></trkpt><trkpt lat="44.4974233" lon="10.7980033"><ele>322.0</ele><time>2026-04-11T06:55:57.419Z</time></trkpt><trkpt lat="44.497395" lon="10.7978933"><ele>324.0</ele><time>2026-04-11T06:55:58.419Z</time></trkpt><trkpt lat="44.4973817" lon="10.797775"><ele>326.0</ele><time>2026-04-11T06:55:59.42Z</time></trkpt><trkpt lat="44.4973733" lon="10.7976283"><ele>327.4</ele><time>2026-04-11T06:56:00.42Z</time></trkpt><trkpt lat="44.4973817" lon="10.7974717"><ele>328.8</ele><time>2026-04-11T06:56:01.42Z</time></trkpt><trkpt lat="44.4973967" lon="10.79733"><ele>330.2</ele><time>2026-04-11T06:56:02.419Z</time></trkpt><trkpt lat="44.49741" lon="10.7972133"><ele>331.59999999999997</ele><time>2026-04-11T06:56:03.42Z</time></trkpt><trkpt lat="44.4974133" lon="10.7971217"><ele>333.0</ele><time>2026-04-11T06:56:04.42Z</time></trkpt><trkpt lat="44.497375" lon="10.7969667"><ele>333.0</ele><time>2026-04-11T06:56:06.419Z</time></trkpt><trkpt lat="44.4973233" lon="10.7968983"><ele>333.0</ele><time>2026-04-11T06:56:07.419Z</time></trkpt><trkpt lat="44.497265" lon="10.7968183"><ele>333.0</ele><time>2026-04-11T06:56:08.419Z</time></trkpt><trkpt lat="44.4972117" lon="10.79672"><ele>333.0</ele><time>2026-04-11T06:56:09.419Z</time></trkpt><trkpt lat="44.4971583" lon="10.7966283"><ele>333.0</ele><time>2026-04-11T06:56:10.419Z</time></trkpt><trkpt lat="44.4971067" lon="10.7965283"><ele>333.0</ele><time>2026-04-11T06:56:11.42Z</time></trkpt><trkpt lat="44.497055" lon="10.796425"><ele>332.3333333333333</ele><time>2026-04-11T06:56:12.42Z</time></trkpt><trkpt lat="44.4970067" lon="10.79632"><ele>331.6666666666667</ele><time>2026-04-11T06:56:13.419Z</time></trkpt><trkpt lat="44.4969667" lon="10.79622"><ele>331.0</ele><time>2026-04-11T06:56:14.419Z</time></trkpt><trkpt lat="44.49693" lon="10.79612"><ele>330.33333333333337</ele><time>2026-04-11T06:56:15.42Z</time></trkpt><trkpt lat="44.4969" lon="10.7960183"><ele>329.6666666666667</ele><time>2026-04-11T06:56:16.419Z</time></trkpt><trkpt lat="44.4968583" lon="10.7959017"><ele>329.0</ele><time>2026-04-11T06:56:17.42Z</time></trkpt><trkpt lat="44.496835" lon="10.795795"><ele>329.0</ele><time>2026-04-11T06:56:18.419Z</time></trkpt><trkpt lat="44.4967967" lon="10.7957017"><ele>329.0</ele><time>2026-04-11T06:56:19.42Z</time></trkpt><trkpt lat="44.4967433" lon="10.7956083"><ele>329.0</ele><time>2026-04-11T06:56:20.42Z</time></trkpt><trkpt lat="44.4966717" lon="10.79552"><ele>329.0</ele><time>2026-04-11T06:56:21.419Z</time></trkpt><trkpt lat="44.4965933" lon="10.7954333"><ele>329.0</ele><time>2026-04-11T06:56:22.419Z</time></trkpt><trkpt lat="44.4965217" lon="10.7953483"><ele>329.0</ele><time>2026-04-11T06:56:23.419Z</time></trkpt><trkpt lat="44.4964583" lon="10.79525"><ele>329.0</ele><time>2026-04-11T06:56:24.419Z</time></trkpt><trkpt lat="44.49641" lon="10.7951433"><ele>329.0</ele><time>2026-04-11T06:56:25.419Z</time></trkpt><trkpt lat="44.4963733" lon="10.795055"><ele>329.0</ele><time>2026-04-11T06:56:26.419Z</time></trkpt><trkpt lat="44.4963383" lon="10.7949633"><ele>329.0</ele><time>2026-04-11T06:56:27.419Z</time></trkpt><trkpt lat="44.4962983" lon="10.794865"><ele>329.0</ele><time>2026-04-11T06:56:28.419Z</time></trkpt><trkpt lat="44.4962583" lon="10.7947483"><ele>329.83333333333337</ele><time>2026-04-11T06:56:29.419Z</time></trkpt><trkpt lat="44.4962133" lon="10.794625"><ele>330.6666666666667</ele><time>2026-04-11T06:56:30.42Z</time></trkpt><trkpt lat="44.496175" lon="10.7945133"><ele>331.5</ele><time>2026-04-11T06:56:31.42Z</time></trkpt><trkpt lat="44.4961383" lon="10.7944283"><ele>332.3333333333333</ele><time>2026-04-11T06:56:32.419Z</time></trkpt><trkpt lat="44.496105" lon="10.7943517"><ele>333.16666666666663</ele><time>2026-04-11T06:56:33.42Z</time></trkpt><trkpt lat="44.49601" lon="10.794245"><ele>334.0</ele><time>2026-04-11T06:56:35.42Z</time></trkpt><trkpt lat="44.4958967" lon="10.79417"><ele>336.16666666666663</ele><time>2026-04-11T06:56:37.419Z</time></trkpt><trkpt lat="44.4958333" lon="10.79414"><ele>338.3333333333333</ele><time>2026-04-11T06:56:38.419Z</time></trkpt><trkpt lat="44.49576" lon="10.7941"><ele>340.5</ele><time>2026-04-11T06:56:39.419Z</time></trkpt><trkpt lat="44.495685" lon="10.7940683"><ele>342.6666666666667</ele><time>2026-04-11T06:56:40.419Z</time></trkpt><trkpt lat="44.4956" lon="10.7940417"><ele>344.83333333333337</ele><time>2026-04-11T06:56:41.42Z</time></trkpt><trkpt lat="44.495525" lon="10.794015"><ele>347.0</ele><time>2026-04-11T06:56:42.42Z</time></trkpt><trkpt lat="44.4954217" lon="10.7939733"><ele>349.0</ele><time>2026-04-11T06:56:44.419Z</time></trkpt><trkpt lat="44.49531" lon="10.7938867"><ele>351.0</ele><time>2026-04-11T06:56:46.419Z</time></trkpt><trkpt lat="44.4952517" lon="10.7938317"><ele>353.0</ele><time>2026-04-11T06:56:47.419Z</time></trkpt><trkpt lat="44.4951417" lon="10.79375"><ele>355.0</ele><time>2026-04-11T06:56:49.42Z</time></trkpt><trkpt lat="44.4950767" lon="10.79372"><ele>357.0</ele><time>2026-04-11T06:56:50.419Z</time></trkpt><trkpt lat="44.4950133" lon="10.7936717"><ele>357.0</ele><time>2026-04-11T06:56:51.419Z</time></trkpt><trkpt lat="44.49495" lon="10.7935517"><ele>357.0</ele><time>2026-04-11T06:56:53.419Z</time></trkpt><trkpt lat="44.4948833" lon="10.7934017"><ele>357.0</ele><time>2026-04-11T06:56:55.419Z</time></trkpt><trkpt lat="44.4948417" lon="10.7933317"><ele>357.0</ele><time>2026-04-11T06:56:56.42Z</time></trkpt><trkpt lat="44.4947917" lon="10.79326"><ele>357.0</ele><time>2026-04-11T06:56:57.419Z</time></trkpt><trkpt lat="44.4947383" lon="10.7931883"><ele>357.0</ele><time>2026-04-11T06:56:58.42Z</time></trkpt><trkpt lat="44.49469" lon="10.7931083"><ele>357.42857142857144</ele><time>2026-04-11T06:56:59.419Z</time></trkpt><trkpt lat="44.4946317" lon="10.7930233"><ele>357.8571428571429</ele><time>2026-04-11T06:57:00.419Z</time></trkpt><trkpt lat="44.4945833" lon="10.792945"><ele>358.2857142857143</ele><time>2026-04-11T06:57:01.419Z</time></trkpt><trkpt lat="44.4945467" lon="10.7928583"><ele>358.7142857142857</ele><time>2026-04-11T06:57:02.419Z</time></trkpt><trkpt lat="44.4945033" lon="10.7927733"><ele>359.14285714285717</ele><time>2026-04-11T06:57:03.419Z</time></trkpt><trkpt lat="44.4944683" lon="10.7926817"><ele>359.57142857142856</ele><time>2026-04-11T06:57:04.419Z</time></trkpt><trkpt lat="44.4944433" lon="10.792595"><ele>360.0</ele><time>2026-04-11T06:57:05.419Z</time></trkpt><trkpt lat="44.4944133" lon="10.79251"><ele>362.0</ele><time>2026-04-11T06:57:06.42Z</time></trkpt><trkpt lat="44.49438" lon="10.7924117"><ele>364.0</ele><time>2026-04-11T06:57:07.419Z</time></trkpt><trkpt lat="44.4943517" lon="10.79232"><ele>366.0</ele><time>2026-04-11T06:57:08.42Z</time></trkpt><trkpt lat="44.49433" lon="10.7922317"><ele>368.0</ele><time>2026-04-11T06:57:09.42Z</time></trkpt><trkpt lat="44.4942983" lon="10.7921383"><ele>370.0</ele><time>2026-04-11T06:57:10.419Z</time></trkpt><trkpt lat="44.494265" lon="10.7920533"><ele>372.0</ele><time>2026-04-11T06:57:11.419Z</time></trkpt><trkpt lat="44.4942317" lon="10.7919633"><ele>374.0</ele><time>2026-04-11T06:57:12.419Z</time></trkpt><trkpt lat="44.4941967" lon="10.7918683"><ele>376.79999999999995</ele><time>2026-04-11T06:57:13.419Z</time></trkpt><trkpt lat="44.49416" lon="10.791765"><ele>379.59999999999997</ele><time>2026-04-11T06:57:14.419Z</time></trkpt><trkpt lat="44.4941283" lon="10.7916767"><ele>382.4</ele><time>2026-04-11T06:57:15.42Z</time></trkpt><trkpt lat="44.4940833" lon="10.7915467"><ele>385.2</ele><time>2026-04-11T06:57:17.419Z</time></trkpt><trkpt lat="44.4940283" lon="10.79141"><ele>388.0</ele><time>2026-04-11T06:57:28.419Z</time></trkpt><trkpt lat="44.49392" lon="10.7913067"><ele>388.00000000000006</ele><time>2026-04-11T06:57:30.42Z</time></trkpt><trkpt lat="44.4938567" lon="10.7912483"><ele>388.0</ele><time>2026-04-11T06:57:31.419Z</time></trkpt><trkpt lat="44.4937917" lon="10.791195"><ele>388.0</ele><time>2026-04-11T06:57:32.419Z</time></trkpt><trkpt lat="44.4937317" lon="10.7911517"><ele>388.0</ele><time>2026-04-11T06:57:33.419Z</time></trkpt><trkpt lat="44.4936733" lon="10.791115"><ele>388.00000000000006</ele><time>2026-04-11T06:57:34.419Z</time></trkpt><trkpt lat="44.4935533" lon="10.791105"><ele>388.0</ele><time>2026-04-11T06:57:36.419Z</time></trkpt><trkpt lat="44.49348" lon="10.79112"><ele>386.6666666666667</ele><time>2026-04-11T06:57:37.42Z</time></trkpt><trkpt lat="44.4934017" lon="10.79113"><ele>385.33333333333337</ele><time>2026-04-11T06:57:38.419Z</time></trkpt><trkpt lat="44.49332" lon="10.7911417"><ele>384.0</ele><time>2026-04-11T06:57:39.419Z</time></trkpt><trkpt lat="44.493235" lon="10.7911517"><ele>382.6666666666667</ele><time>2026-04-11T06:57:40.419Z</time></trkpt><trkpt lat="44.493155" lon="10.79115"><ele>381.33333333333337</ele><time>2026-04-11T06:57:41.42Z</time></trkpt><trkpt lat="44.49307" lon="10.7911383"><ele>380.0</ele><time>2026-04-11T06:57:42.419Z</time></trkpt><trkpt lat="44.4929867" lon="10.7911267"><ele>380.0</ele><time>2026-04-11T06:57:43.42Z</time></trkpt><trkpt lat="44.4929067" lon="10.791125"><ele>380.0</ele><time>2026-04-11T06:57:44.419Z</time></trkpt><trkpt lat="44.4928283" lon="10.7911483"><ele>380.0</ele><time>2026-04-11T06:57:45.42Z</time></trkpt><trkpt lat="44.49276" lon="10.791195"><ele>380.0</ele><time>2026-04-11T06:57:46.419Z</time></trkpt><trkpt lat="44.4926967" lon="10.7912733"><ele>380.0</ele><time>2026-04-11T06:57:47.419Z</time></trkpt><trkpt lat="44.492645" lon="10.7913483"><ele>380.0</ele><time>2026-04-11T06:57:48.419Z</time></trkpt><trkpt lat="44.4925867" lon="10.791415"><ele>380.0</ele><time>2026-04-11T06:57:49.419Z</time></trkpt><trkpt lat="44.4925233" lon="10.7914567"><ele>380.0</ele><time>2026-04-11T06:57:50.419Z</time></trkpt><trkpt lat="44.49244" lon="10.7914683"><ele>380.0</ele><time>2026-04-11T06:57:51.42Z</time></trkpt><trkpt lat="44.4923617" lon="10.7914717"><ele>380.0</ele><time>2026-04-11T06:57:52.419Z</time></trkpt><trkpt lat="44.4922883" lon="10.791485"><ele>380.0</ele><time>2026-04-11T06:57:53.42Z</time></trkpt><trkpt lat="44.4922167" lon="10.791535"><ele>380.0</ele><time>2026-04-11T06:57:54.419Z</time></trkpt><trkpt lat="44.4921533" lon="10.7916167"><ele>380.0</ele><time>2026-04-11T06:57:55.419Z</time></trkpt><trkpt lat="44.492095" lon="10.7917367"><ele>380.0</ele><time>2026-04-11T06:57:56.419Z</time></trkpt><trkpt lat="44.4920417" lon="10.7918933"><ele>380.0</ele><time>2026-04-11T06:57:57.419Z</time></trkpt><trkpt lat="44.4919867" lon="10.7920433"><ele>380.0</ele><time>2026-04-11T06:57:58.419Z</time></trkpt><trkpt lat="44.4919217" lon="10.7921917"><ele>378.8</ele><time>2026-04-11T06:57:59.419Z</time></trkpt><trkpt lat="44.4918633" lon="10.7923317"><ele>377.6</ele><time>2026-04-11T06:58:00.419Z</time></trkpt><trkpt lat="44.4918117" lon="10.792455"><ele>376.4</ele><time>2026-04-11T06:58:01.419Z</time></trkpt><trkpt lat="44.491765" lon="10.7925717"><ele>375.2</ele><time>2026-04-11T06:58:02.419Z</time></trkpt><trkpt lat="44.491725" lon="10.792695"><ele>374.0</ele><time>2026-04-11T06:58:03.419Z</time></trkpt><trkpt lat="44.491685" lon="10.79282"><ele>372.0</ele><time>2026-04-11T06:58:04.419Z</time></trkpt><trkpt lat="44.4916483" lon="10.792945"><ele>370.0</ele><time>2026-04-11T06:58:05.419Z</time></trkpt><trkpt lat="44.4916133" lon="10.793075"><ele>368.0</ele><time>2026-04-11T06:58:06.419Z</time></trkpt><trkpt lat="44.4915833" lon="10.7932033"><ele>366.0</ele><time>2026-04-11T06:58:07.419Z</time></trkpt><trkpt lat="44.49156" lon="10.793335"><ele>364.0</ele><time>2026-04-11T06:58:08.419Z</time></trkpt><trkpt lat="44.4915467" lon="10.7934683"><ele>363.0</ele><time>2026-04-11T06:58:09.419Z</time></trkpt><trkpt lat="44.4915333" lon="10.7935983"><ele>362.0</ele><time>2026-04-11T06:58:10.419Z</time></trkpt><trkpt lat="44.491515" lon="10.7937283"><ele>361.0</ele><time>2026-04-11T06:58:11.419Z</time></trkpt><trkpt lat="44.4915067" lon="10.7938483"><ele>360.0</ele><time>2026-04-11T06:58:12.42Z</time></trkpt><trkpt lat="44.4914867" lon="10.79397"><ele>359.0</ele><time>2026-04-11T06:58:13.419Z</time></trkpt><trkpt lat="44.49146" lon="10.7940867"><ele>359.0</ele><time>2026-04-11T06:58:14.42Z</time></trkpt><trkpt lat="44.4914317" lon="10.79421"><ele>359.0</ele><time>2026-04-11T06:58:15.419Z</time></trkpt><trkpt lat="44.491405" lon="10.7943383"><ele>359.0</ele><time>2026-04-11T06:58:16.419Z</time></trkpt><trkpt lat="44.4913833" lon="10.794455"><ele>359.0</ele><time>2026-04-11T06:58:17.419Z</time></trkpt><trkpt lat="44.4913633" lon="10.7945717"><ele>359.0</ele><time>2026-04-11T06:58:18.42Z</time></trkpt><trkpt lat="44.4913433" lon="10.7946817"><ele>359.0</ele><time>2026-04-11T06:58:19.419Z</time></trkpt><trkpt lat="44.491325" lon="10.7947717"><ele>358.1666666666667</ele><time>2026-04-11T06:58:20.42Z</time></trkpt><trkpt lat="44.4913033" lon="10.794885"><ele>357.33333333333337</ele><time>2026-04-11T06:58:22.42Z</time></trkpt><trkpt lat="44.4912183" lon="10.79492"><ele>356.5</ele><time>2026-04-11T06:58:24.42Z</time></trkpt><trkpt lat="44.491155" lon="10.7948983"><ele>355.6666666666667</ele><time>2026-04-11T06:58:25.419Z</time></trkpt><trkpt lat="44.4910933" lon="10.794875"><ele>354.8333333333333</ele><time>2026-04-11T06:58:26.419Z</time></trkpt><trkpt lat="44.4909767" lon="10.79484"><ele>354.0</ele><time>2026-04-11T06:58:28.419Z</time></trkpt><trkpt lat="44.4908683" lon="10.79483"><ele>354.0</ele><time>2026-04-11T06:58:30.419Z</time></trkpt><trkpt lat="44.4907617" lon="10.79483"><ele>354.0</ele><time>2026-04-11T06:58:32.419Z</time></trkpt><trkpt lat="44.4906983" lon="10.79483"><ele>354.0</ele><time>2026-04-11T06:58:33.42Z</time></trkpt><trkpt lat="44.49058" lon="10.7948267"><ele>354.0</ele><time>2026-04-11T06:58:35.419Z</time></trkpt><trkpt lat="44.4904733" lon="10.7948233"><ele>354.0</ele><time>2026-04-11T06:58:37.419Z</time></trkpt><trkpt lat="44.4903617" lon="10.7948117"><ele>352.8333333333333</ele><time>2026-04-11T06:58:39.419Z</time></trkpt><trkpt lat="44.4902983" lon="10.7948117"><ele>351.6666666666667</ele><time>2026-04-11T06:58:40.419Z</time></trkpt><trkpt lat="44.4902333" lon="10.7947983"><ele>350.5</ele><time>2026-04-11T06:58:41.419Z</time></trkpt><trkpt lat="44.4901667" lon="10.79479"><ele>349.33333333333337</ele><time>2026-04-11T06:58:42.419Z</time></trkpt><trkpt lat="44.4900717" lon="10.79474"><ele>348.1666666666667</ele><time>2026-04-11T06:58:44.419Z</time></trkpt><trkpt lat="44.4899833" lon="10.7946833"><ele>347.0</ele><time>2026-04-11T06:58:46.42Z</time></trkpt><trkpt lat="44.489895" lon="10.7946267"><ele>347.0</ele><time>2026-04-11T06:58:48.419Z</time></trkpt><trkpt lat="44.4898033" lon="10.7945517"><ele>347.0</ele><time>2026-04-11T06:58:50.419Z</time></trkpt><trkpt lat="44.4896917" lon="10.7945217"><ele>347.0</ele><time>2026-04-11T06:58:52.419Z</time></trkpt><trkpt lat="44.4896267" lon="10.7945333"><ele>347.0</ele><time>2026-04-11T06:58:53.42Z</time></trkpt><trkpt lat="44.4895667" lon="10.794565"><ele>347.0</ele><time>2026-04-11T06:58:54.419Z</time></trkpt><trkpt lat="44.4895033" lon="10.7945883"><ele>347.0</ele><time>2026-04-11T06:58:55.419Z</time></trkpt><trkpt lat="44.4893867" lon="10.7946483"><ele>346.5</ele><time>2026-04-11T06:58:57.419Z</time></trkpt><trkpt lat="44.48932" lon="10.79469"><ele>346.0</ele><time>2026-04-11T06:58:58.419Z</time></trkpt><trkpt lat="44.4892567" lon="10.7947633"><ele>345.5</ele><time>2026-04-11T06:58:59.419Z</time></trkpt><trkpt lat="44.4891817" lon="10.794825"><ele>345.0</ele><time>2026-04-11T06:59:00.42Z</time></trkpt><trkpt lat="44.4891017" lon="10.7948717"><ele>344.5</ele><time>2026-04-11T06:59:01.419Z</time></trkpt><trkpt lat="44.4890233" lon="10.79492"><ele>344.0</ele><time>2026-04-11T06:59:02.419Z</time></trkpt><trkpt lat="44.4889633" lon="10.7949683"><ele>344.0</ele><time>2026-04-11T06:59:03.419Z</time></trkpt><trkpt lat="44.4889" lon="10.7949967"><ele>344.0</ele><time>2026-04-11T06:59:04.419Z</time></trkpt><trkpt lat="44.48883" lon="10.7949267"><ele>344.0</ele><time>2026-04-11T06:59:06.419Z</time></trkpt><trkpt lat="44.4887967" lon="10.7948433"><ele>344.0</ele><time>2026-04-11T06:59:07.42Z</time></trkpt><trkpt lat="44.4887517" lon="10.7947333"><ele>344.0</ele><time>2026-04-11T06:59:08.42Z</time></trkpt><trkpt lat="44.4887083" lon="10.7946283"><ele>344.0</ele><time>2026-04-11T06:59:09.42Z</time></trkpt><trkpt lat="44.48865" lon="10.7945533"><ele>342.33333333333337</ele><time>2026-04-11T06:59:10.419Z</time></trkpt><trkpt lat="44.488585" lon="10.7945033"><ele>340.6666666666667</ele><time>2026-04-11T06:59:11.419Z</time></trkpt><trkpt lat="44.4885217" lon="10.7944"><ele>339.0</ele><time>2026-04-11T06:59:13.42Z</time></trkpt><trkpt lat="44.4885367" lon="10.7942783"><ele>337.3333333333333</ele><time>2026-04-11T06:59:15.42Z</time></trkpt><trkpt lat="44.4885617" lon="10.7941967"><ele>335.66666666666663</ele><time>2026-04-11T06:59:16.419Z</time></trkpt><trkpt lat="44.4885883" lon="10.794085"><ele>334.0</ele><time>2026-04-11T06:59:17.42Z</time></trkpt><trkpt lat="44.4886267" lon="10.793955"><ele>334.0</ele><time>2026-04-11T06:59:18.42Z</time></trkpt><trkpt lat="44.4886517" lon="10.7938267"><ele>334.0</ele><time>2026-04-11T06:59:19.419Z</time></trkpt><trkpt lat="44.4886733" lon="10.7937083"><ele>334.0</ele><time>2026-04-11T06:59:20.419Z</time></trkpt><trkpt lat="44.4887017" lon="10.7935883"><ele>334.0</ele><time>2026-04-11T06:59:21.42Z</time></trkpt><trkpt lat="44.4887317" lon="10.7934767"><ele>334.0</ele><time>2026-04-11T06:59:22.418Z</time></trkpt><trkpt lat="44.48875" lon="10.7933717"><ele>334.0</ele><time>2026-04-11T06:59:23.419Z</time></trkpt><trkpt lat="44.4887483" lon="10.793275"><ele>334.5</ele><time>2026-04-11T06:59:24.419Z</time></trkpt><trkpt lat="44.48873" lon="10.7931733"><ele>335.0</ele><time>2026-04-11T06:59:25.418Z</time></trkpt><trkpt lat="44.4886967" lon="10.7930783"><ele>335.5</ele><time>2026-04-11T06:59:26.419Z</time></trkpt><trkpt lat="44.48864" lon="10.79299"><ele>336.0</ele><time>2026-04-11T06:59:27.418Z</time></trkpt><trkpt lat="44.48858" lon="10.7928933"><ele>336.5</ele><time>2026-04-11T06:59:28.419Z</time></trkpt><trkpt lat="44.488525" lon="10.7928"><ele>337.0</ele><time>2026-04-11T06:59:29.419Z</time></trkpt><trkpt lat="44.4884717" lon="10.7927117"><ele>336.66666666666663</ele><time>2026-04-11T06:59:30.418Z</time></trkpt><trkpt lat="44.4884233" lon="10.7926433"><ele>336.3333333333333</ele><time>2026-04-11T06:59:31.418Z</time></trkpt><trkpt lat="44.48835" lon="10.7925367"><ele>336.0</ele><time>2026-04-11T06:59:33.418Z</time></trkpt><trkpt lat="44.488325" lon="10.79243"><ele>335.6666666666667</ele><time>2026-04-11T06:59:35.418Z</time></trkpt><trkpt lat="44.4883633" lon="10.7923383"><ele>335.33333333333337</ele><time>2026-04-11T06:59:37.419Z</time></trkpt><trkpt lat="44.48844" lon="10.79227"><ele>335.0</ele><time>2026-04-11T06:59:39.418Z</time></trkpt><trkpt lat="44.488555" lon="10.7921617"><ele>335.0</ele><time>2026-04-11T06:59:41.418Z</time></trkpt><trkpt lat="44.4886233" lon="10.7921"><ele>335.0</ele><time>2026-04-11T06:59:42.418Z</time></trkpt><trkpt lat="44.4886967" lon="10.79203"><ele>335.0</ele><time>2026-04-11T06:59:43.418Z</time></trkpt><trkpt lat="44.4887683" lon="10.7919633"><ele>335.0</ele><time>2026-04-11T06:59:44.419Z</time></trkpt><trkpt lat="44.4888317" lon="10.79191"><ele>335.0</ele><time>2026-04-11T06:59:45.419Z</time></trkpt><trkpt lat="44.488905" lon="10.79182"><ele>335.0</ele><time>2026-04-11T06:59:47.418Z</time></trkpt><trkpt lat="44.4889083" lon="10.7916833"><ele>332.8</ele><time>2026-04-11T06:59:49.419Z</time></trkpt><trkpt lat="44.4888417" lon="10.7915417"><ele>330.6</ele><time>2026-04-11T06:59:51.418Z</time></trkpt><trkpt lat="44.488785" lon="10.7914917"><ele>328.4</ele><time>2026-04-11T06:59:52.418Z</time></trkpt><trkpt lat="44.4886767" lon="10.7913833"><ele>326.2</ele><time>2026-04-11T06:59:54.418Z</time></trkpt><trkpt lat="44.4886367" lon="10.7912283"><ele>324.0</ele><time>2026-04-11T06:59:56.418Z</time></trkpt><trkpt lat="44.488645" lon="10.7910633"><ele>324.0</ele><time>2026-04-11T06:59:58.418Z</time></trkpt><trkpt lat="44.4886467" lon="10.790975"><ele>324.0</ele><time>2026-04-11T06:59:59.418Z</time></trkpt><trkpt lat="44.4886167" lon="10.7908133"><ele>324.0</ele><time>2026-04-11T07:00:01.418Z</time></trkpt><trkpt lat="44.488535" lon="10.7907083"><ele>324.0</ele><time>2026-04-11T07:00:03.419Z</time></trkpt><trkpt lat="44.4884967" lon="10.7905617"><ele>324.0</ele><time>2026-04-11T07:00:05.418Z</time></trkpt><trkpt lat="44.488505" lon="10.7904733"><ele>324.0</ele><time>2026-04-11T07:00:06.418Z</time></trkpt><trkpt lat="44.4885483" lon="10.79031"><ele>324.0</ele><time>2026-04-11T07:00:08.419Z</time></trkpt><trkpt lat="44.4885783" lon="10.7902217"><ele>324.0</ele><time>2026-04-11T07:00:09.419Z</time></trkpt><trkpt lat="44.4886" lon="10.7901383"><ele>324.0</ele><time>2026-04-11T07:00:10.419Z</time></trkpt><trkpt lat="44.4886" lon="10.790045"><ele>324.0</ele><time>2026-04-11T07:00:11.418Z</time></trkpt><trkpt lat="44.4885817" lon="10.7899567"><ele>324.0</ele><time>2026-04-11T07:00:12.419Z</time></trkpt><trkpt lat="44.4885417" lon="10.7898767"><ele>324.0</ele><time>2026-04-11T07:00:13.418Z</time></trkpt><trkpt lat="44.48849" lon="10.7898067"><ele>324.0</ele><time>2026-04-11T07:00:14.419Z</time></trkpt><trkpt lat="44.4884483" lon="10.78974"><ele>324.0</ele><time>2026-04-11T07:00:15.418Z</time></trkpt><trkpt lat="44.4884067" lon="10.7896633"><ele>324.0</ele><time>2026-04-11T07:00:16.419Z</time></trkpt><trkpt lat="44.4883267" lon="10.7895217"><ele>324.0</ele><time>2026-04-11T07:00:18.418Z</time></trkpt><trkpt lat="44.48829" lon="10.7894483"><ele>324.0</ele><time>2026-04-11T07:00:19.418Z</time></trkpt><trkpt lat="44.4882067" lon="10.78931"><ele>323.1666666666667</ele><time>2026-04-11T07:00:21.418Z</time></trkpt><trkpt lat="44.4881583" lon="10.7892517"><ele>322.3333333333333</ele><time>2026-04-11T07:00:22.419Z</time></trkpt><trkpt lat="44.48811" lon="10.78919"><ele>321.5</ele><time>2026-04-11T07:00:23.418Z</time></trkpt><trkpt lat="44.48803" lon="10.7890783"><ele>320.66666666666663</ele><time>2026-04-11T07:00:25.418Z</time></trkpt><trkpt lat="44.487945" lon="10.7890533"><ele>319.8333333333333</ele><time>2026-04-11T07:00:27.419Z</time></trkpt><trkpt lat="44.4878933" lon="10.7891533"><ele>319.0</ele><time>2026-04-11T07:00:29.418Z</time></trkpt><trkpt lat="44.4879017" lon="10.789325"><ele>315.2857142857143</ele><time>2026-04-11T07:00:31.418Z</time></trkpt><trkpt lat="44.4878983" lon="10.7894167"><ele>311.57142857142856</ele><time>2026-04-11T07:00:32.418Z</time></trkpt><trkpt lat="44.4878817" lon="10.789505"><ele>307.85714285714283</ele><time>2026-04-11T07:00:33.419Z</time></trkpt><trkpt lat="44.4878617" lon="10.7896033"><ele>304.1428571428571</ele><time>2026-04-11T07:00:34.419Z</time></trkpt><trkpt lat="44.4878267" lon="10.7896983"><ele>300.42857142857144</ele><time>2026-04-11T07:00:35.418Z</time></trkpt><trkpt lat="44.4878" lon="10.7898017"><ele>296.71428571428567</ele><time>2026-04-11T07:00:36.418Z</time></trkpt><trkpt lat="44.48776" lon="10.7899033"><ele>293.0</ele><time>2026-04-11T07:00:37.418Z</time></trkpt><trkpt lat="44.4877333" lon="10.7899967"><ele>293.0</ele><time>2026-04-11T07:00:38.418Z</time></trkpt><trkpt lat="44.4877133" lon="10.790085"><ele>293.0</ele><time>2026-04-11T07:00:39.418Z</time></trkpt><trkpt lat="44.487695" lon="10.79017"><ele>293.0</ele><time>2026-04-11T07:00:40.418Z</time></trkpt><trkpt lat="44.48769" lon="10.7902633"><ele>293.0</ele><time>2026-04-11T07:00:41.418Z</time></trkpt><trkpt lat="44.4876967" lon="10.790375"><ele>293.0</ele><time>2026-04-11T07:00:42.418Z</time></trkpt><trkpt lat="44.487705" lon="10.7904933"><ele>293.0</ele><time>2026-04-11T07:00:43.418Z</time></trkpt><trkpt lat="44.4877" lon="10.7906317"><ele>293.0</ele><time>2026-04-11T07:00:44.418Z</time></trkpt><trkpt lat="44.4876767" lon="10.7907667"><ele>293.0</ele><time>2026-04-11T07:00:45.418Z</time></trkpt><trkpt lat="44.4876383" lon="10.790875"><ele>293.0</ele><time>2026-04-11T07:00:46.419Z</time></trkpt><trkpt lat="44.4876067" lon="10.7909817"><ele>293.0</ele><time>2026-04-11T07:00:47.418Z</time></trkpt><trkpt lat="44.4875833" lon="10.7910833"><ele>293.0</ele><time>2026-04-11T07:00:48.419Z</time></trkpt><trkpt lat="44.4875533" lon="10.7912033"><ele>293.0</ele><time>2026-04-11T07:00:49.418Z</time></trkpt><trkpt lat="44.4875033" lon="10.79131"><ele>294.1666666666667</ele><time>2026-04-11T07:00:50.419Z</time></trkpt><trkpt lat="44.4874533" lon="10.7914083"><ele>295.33333333333337</ele><time>2026-04-11T07:00:51.418Z</time></trkpt><trkpt lat="44.4873983" lon="10.79149"><ele>296.5</ele><time>2026-04-11T07:00:52.418Z</time></trkpt><trkpt lat="44.4873383" lon="10.791575"><ele>297.6666666666667</ele><time>2026-04-11T07:00:53.418Z</time></trkpt><trkpt lat="44.4872633" lon="10.79164"><ele>298.8333333333333</ele><time>2026-04-11T07:00:54.419Z</time></trkpt><trkpt lat="44.4871933" lon="10.7916983"><ele>300.0</ele><time>2026-04-11T07:00:55.418Z</time></trkpt><trkpt lat="44.48713" lon="10.7917433"><ele>297.1428571428571</ele><time>2026-04-11T07:00:56.419Z</time></trkpt><trkpt lat="44.487065" lon="10.7917867"><ele>294.2857142857143</ele><time>2026-04-11T07:00:57.418Z</time></trkpt><trkpt lat="44.486995" lon="10.7918367"><ele>291.42857142857144</ele><time>2026-04-11T07:00:58.419Z</time></trkpt><trkpt lat="44.48693" lon="10.791895"><ele>288.57142857142856</ele><time>2026-04-11T07:00:59.418Z</time></trkpt><trkpt lat="44.4868717" lon="10.7919683"><ele>285.7142857142857</ele><time>2026-04-11T07:01:00.419Z</time></trkpt><trkpt lat="44.4868183" lon="10.79204"><ele>282.85714285714283</ele><time>2026-04-11T07:01:01.419Z</time></trkpt><trkpt lat="44.4867783" lon="10.7921183"><ele>280.0</ele><time>2026-04-11T07:01:02.418Z</time></trkpt><trkpt lat="44.486735" lon="10.7921967"><ele>279.3333333333333</ele><time>2026-04-11T07:01:03.419Z</time></trkpt><trkpt lat="44.4866883" lon="10.7922733"><ele>278.66666666666663</ele><time>2026-04-11T07:01:04.418Z</time></trkpt><trkpt lat="44.486645" lon="10.79235"><ele>278.0</ele><time>2026-04-11T07:01:05.418Z</time></trkpt><trkpt lat="44.4866067" lon="10.7924317"><ele>277.3333333333333</ele><time>2026-04-11T07:01:06.418Z</time></trkpt><trkpt lat="44.4865767" lon="10.7925117"><ele>276.6666666666667</ele><time>2026-04-11T07:01:07.418Z</time></trkpt><trkpt lat="44.4865067" lon="10.79263"><ele>276.0</ele><time>2026-04-11T07:01:09.418Z</time></trkpt><trkpt lat="44.4864267" lon="10.7926867"><ele>275.5</ele><time>2026-04-11T07:01:11.418Z</time></trkpt><trkpt lat="44.48634" lon="10.7927117"><ele>275.0</ele><time>2026-04-11T07:01:13.418Z</time></trkpt><trkpt lat="44.4862683" lon="10.7927683"><ele>274.5</ele><time>2026-04-11T07:01:15.418Z</time></trkpt><trkpt lat="44.4862033" lon="10.7929033"><ele>274.0</ele><time>2026-04-11T07:01:17.418Z</time></trkpt><trkpt lat="44.4861633" lon="10.7929733"><ele>273.5</ele><time>2026-04-11T07:01:18.419Z</time></trkpt><trkpt lat="44.4861283" lon="10.7930517"><ele>273.0</ele><time>2026-04-11T07:01:19.419Z</time></trkpt><trkpt lat="44.4860867" lon="10.7931317"><ele>271.8333333333333</ele><time>2026-04-11T07:01:20.419Z</time></trkpt><trkpt lat="44.4860467" lon="10.7932"><ele>270.6666666666667</ele><time>2026-04-11T07:01:21.419Z</time></trkpt><trkpt lat="44.4859733" lon="10.7933217"><ele>269.5</ele><time>2026-04-11T07:01:23.418Z</time></trkpt><trkpt lat="44.4859317" lon="10.7934317"><ele>268.33333333333337</ele><time>2026-04-11T07:01:25.418Z</time></trkpt><trkpt lat="44.4859233" lon="10.793525"><ele>267.1666666666667</ele><time>2026-04-11T07:01:27.419Z</time></trkpt><trkpt lat="44.4858933" lon="10.7936167"><ele>266.0</ele><time>2026-04-11T07:01:31.418Z</time></trkpt><trkpt lat="44.4858417" lon="10.7935267"><ele>263.8</ele><time>2026-04-11T07:01:35.418Z</time></trkpt><trkpt lat="44.48583" lon="10.7933483"><ele>261.6</ele><time>2026-04-11T07:01:37.418Z</time></trkpt><trkpt lat="44.48583" lon="10.7932367"><ele>259.4</ele><time>2026-04-11T07:01:38.418Z</time></trkpt><trkpt lat="44.4858283" lon="10.7931267"><ele>257.2</ele><time>2026-04-11T07:01:39.419Z</time></trkpt><trkpt lat="44.48582" lon="10.7930117"><ele>255.0</ele><time>2026-04-11T07:01:40.419Z</time></trkpt><trkpt lat="44.48579" lon="10.7928933"><ele>255.0</ele><time>2026-04-11T07:01:41.419Z</time></trkpt><trkpt lat="44.485745" lon="10.7927817"><ele>255.0</ele><time>2026-04-11T07:01:42.418Z</time></trkpt><trkpt lat="44.48569" lon="10.7926783"><ele>255.0</ele><time>2026-04-11T07:01:43.419Z</time></trkpt><trkpt lat="44.4856283" lon="10.79259"><ele>255.0</ele><time>2026-04-11T07:01:44.419Z</time></trkpt><trkpt lat="44.4855667" lon="10.79251"><ele>255.0</ele><time>2026-04-11T07:01:45.418Z</time></trkpt><trkpt lat="44.4854867" lon="10.7924433"><ele>255.0</ele><time>2026-04-11T07:01:46.418Z</time></trkpt><trkpt lat="44.4854" lon="10.79241"><ele>254.8</ele><time>2026-04-11T07:01:47.418Z</time></trkpt><trkpt lat="44.4853133" lon="10.7924117"><ele>254.6</ele><time>2026-04-11T07:01:48.418Z</time></trkpt><trkpt lat="44.485225" lon="10.7924517"><ele>254.39999999999998</ele><time>2026-04-11T07:01:49.418Z</time></trkpt><trkpt lat="44.4851383" lon="10.7925217"><ele>254.2</ele><time>2026-04-11T07:01:50.418Z</time></trkpt><trkpt lat="44.4850583" lon="10.79261"><ele>254.0</ele><time>2026-04-11T07:01:51.418Z</time></trkpt><trkpt lat="44.4849883" lon="10.792715"><ele>253.79999999999998</ele><time>2026-04-11T07:01:52.418Z</time></trkpt><trkpt lat="44.48492" lon="10.7928417"><ele>253.59999999999997</ele><time>2026-04-11T07:01:53.418Z</time></trkpt><trkpt lat="44.4848533" lon="10.7929717"><ele>253.4</ele><time>2026-04-11T07:01:54.418Z</time></trkpt><trkpt lat="44.4847883" lon="10.7930917"><ele>253.2</ele><time>2026-04-11T07:01:55.418Z</time></trkpt><trkpt lat="44.4847217" lon="10.793215"><ele>253.0</ele><time>2026-04-11T07:01:56.419Z</time></trkpt><trkpt lat="44.484655" lon="10.7933383"><ele>253.0</ele><time>2026-04-11T07:01:57.419Z</time></trkpt><trkpt lat="44.4845883" lon="10.7934583"><ele>253.0</ele><time>2026-04-11T07:01:58.418Z</time></trkpt><trkpt lat="44.4845267" lon="10.7935683"><ele>253.0</ele><time>2026-04-11T07:01:59.418Z</time></trkpt><trkpt lat="44.484455" lon="10.793655"><ele>253.0</ele><time>2026-04-11T07:02:00.418Z</time></trkpt><trkpt lat="44.4843683" lon="10.79373"><ele>253.0</ele><time>2026-04-11T07:02:01.418Z</time></trkpt><trkpt lat="44.4842917" lon="10.7937817"><ele>252.99999999999997</ele><time>2026-04-11T07:02:02.419Z</time></trkpt><trkpt lat="44.48421" lon="10.7938"><ele>253.0</ele><time>2026-04-11T07:02:03.418Z</time></trkpt><trkpt lat="44.4841283" lon="10.7937817"><ele>253.0</ele><time>2026-04-11T07:02:04.418Z</time></trkpt><trkpt lat="44.48406" lon="10.7937317"><ele>253.0</ele><time>2026-04-11T07:02:05.418Z</time></trkpt><trkpt lat="44.4839983" lon="10.7936483"><ele>252.99999999999997</ele><time>2026-04-11T07:02:06.418Z</time></trkpt><trkpt lat="44.48396" lon="10.7935517"><ele>253.0</ele><time>2026-04-11T07:02:07.418Z</time></trkpt><trkpt lat="44.4839383" lon="10.7934267"><ele>253.0</ele><time>2026-04-11T07:02:08.419Z</time></trkpt><trkpt lat="44.4839133" lon="10.7932983"><ele>253.0</ele><time>2026-04-11T07:02:09.418Z</time></trkpt><trkpt lat="44.4838683" lon="10.79316"><ele>253.0</ele><time>2026-04-11T07:02:10.419Z</time></trkpt><trkpt lat="44.4838083" lon="10.7930267"><ele>253.0</ele><time>2026-04-11T07:02:11.419Z</time></trkpt><trkpt lat="44.4837483" lon="10.7929017"><ele>253.0</ele><time>2026-04-11T07:02:12.418Z</time></trkpt><trkpt lat="44.4836817" lon="10.792785"><ele>253.83333333333331</ele><time>2026-04-11T07:02:13.418Z</time></trkpt><trkpt lat="44.483615" lon="10.79268"><ele>254.66666666666666</ele><time>2026-04-11T07:02:14.418Z</time></trkpt><trkpt lat="44.483545" lon="10.792605"><ele>255.5</ele><time>2026-04-11T07:02:15.418Z</time></trkpt><trkpt lat="44.4834717" lon="10.79257"><ele>256.3333333333333</ele><time>2026-04-11T07:02:16.418Z</time></trkpt><trkpt lat="44.4833983" lon="10.79257"><ele>257.1666666666667</ele><time>2026-04-11T07:02:17.418Z</time></trkpt><trkpt lat="44.4833117" lon="10.7926183"><ele>258.0</ele><time>2026-04-11T07:02:18.418Z</time></trkpt><trkpt lat="44.4832117" lon="10.79271"><ele>258.0</ele><time>2026-04-11T07:02:19.418Z</time></trkpt><trkpt lat="44.4831033" lon="10.7928033"><ele>258.0</ele><time>2026-04-11T07:02:20.418Z</time></trkpt><trkpt lat="44.48301" lon="10.792865"><ele>258.0</ele><time>2026-04-11T07:02:21.419Z</time></trkpt><trkpt lat="44.4829017" lon="10.7928933"><ele>258.0</ele><time>2026-04-11T07:02:22.419Z</time></trkpt><trkpt lat="44.4827883" lon="10.79289"><ele>259.5</ele><time>2026-04-11T07:02:23.418Z</time></trkpt><trkpt lat="44.482675" lon="10.792865"><ele>261.0</ele><time>2026-04-11T07:02:24.418Z</time></trkpt><trkpt lat="44.4825533" lon="10.7928233"><ele>262.5</ele><time>2026-04-11T07:02:25.419Z</time></trkpt><trkpt lat="44.4824333" lon="10.7927683"><ele>264.0</ele><time>2026-04-11T07:02:26.419Z</time></trkpt><trkpt lat="44.4823283" lon="10.7926817"><ele>264.5</ele><time>2026-04-11T07:02:27.418Z</time></trkpt><trkpt lat="44.482225" lon="10.7925717"><ele>265.0</ele><time>2026-04-11T07:02:28.419Z</time></trkpt><trkpt lat="44.4821283" lon="10.7924567"><ele>265.5</ele><time>2026-04-11T07:02:29.419Z</time></trkpt><trkpt lat="44.4820367" lon="10.7923367"><ele>266.0</ele><time>2026-04-11T07:02:30.418Z</time></trkpt><trkpt lat="44.4819517" lon="10.79222"><ele>266.0</ele><time>2026-04-11T07:02:31.418Z</time></trkpt><trkpt lat="44.4818667" lon="10.7921083"><ele>266.0</ele><time>2026-04-11T07:02:32.419Z</time></trkpt><trkpt lat="44.481785" lon="10.7920083"><ele>266.0</ele><time>2026-04-11T07:02:33.419Z</time></trkpt><trkpt lat="44.481695" lon="10.791915"><ele>266.0</ele><time>2026-04-11T07:02:34.418Z</time></trkpt><trkpt lat="44.4815967" lon="10.79185"><ele>266.0</ele><time>2026-04-11T07:02:35.418Z</time></trkpt><trkpt lat="44.48149" lon="10.7917933"><ele>266.0</ele><time>2026-04-11T07:02:36.419Z</time></trkpt><trkpt lat="44.48137" lon="10.7917533"><ele>266.0</ele><time>2026-04-11T07:02:37.418Z</time></trkpt><trkpt lat="44.48125" lon="10.7917083"><ele>266.0</ele><time>2026-04-11T07:02:38.418Z</time></trkpt><trkpt lat="44.4811267" lon="10.7916533"><ele>266.0</ele><time>2026-04-11T07:02:39.418Z</time></trkpt><trkpt lat="44.4809983" lon="10.7916067"><ele>266.0</ele><time>2026-04-11T07:02:40.418Z</time></trkpt><trkpt lat="44.4808767" lon="10.79158"><ele>266.0</ele><time>2026-04-11T07:02:41.419Z</time></trkpt><trkpt lat="44.4807517" lon="10.7915667"><ele>266.0</ele><time>2026-04-11T07:02:42.419Z</time></trkpt><trkpt lat="44.480625" lon="10.7915633"><ele>266.0</ele><time>2026-04-11T07:02:43.418Z</time></trkpt><trkpt lat="44.4804983" lon="10.791575"><ele>267.2</ele><time>2026-04-11T07:02:44.418Z</time></trkpt><trkpt lat="44.4803767" lon="10.7915833"><ele>268.40000000000003</ele><time>2026-04-11T07:02:45.418Z</time></trkpt><trkpt lat="44.4802567" lon="10.791585"><ele>269.6</ele><time>2026-04-11T07:02:46.419Z</time></trkpt><trkpt lat="44.48015" lon="10.7915933"><ele>270.8</ele><time>2026-04-11T07:02:47.418Z</time></trkpt><trkpt lat="44.4800567" lon="10.7915917"><ele>272.0</ele><time>2026-04-11T07:02:48.419Z</time></trkpt><trkpt lat="44.4799883" lon="10.7916017"><ele>272.0</ele><time>2026-04-11T07:02:49.418Z</time></trkpt><trkpt lat="44.4799033" lon="10.791605"><ele>272.0</ele><time>2026-04-11T07:02:51.418Z</time></trkpt><trkpt lat="44.4798317" lon="10.7915933"><ele>272.0</ele><time>2026-04-11T07:02:53.418Z</time></trkpt><trkpt lat="44.4797533" lon="10.7915767"><ele>272.0</ele><time>2026-04-11T07:02:55.419Z</time></trkpt><trkpt lat="44.4796683" lon="10.791555"><ele>272.0</ele><time>2026-04-11T07:02:57.418Z</time></trkpt><trkpt lat="44.47958" lon="10.7915283"><ele>272.0</ele><time>2026-04-11T07:02:59.418Z</time></trkpt><trkpt lat="44.479505" lon="10.79148"><ele>272.0</ele><time>2026-04-11T07:03:01.418Z</time></trkpt><trkpt lat="44.4794917" lon="10.79139"><ele>272.0</ele><time>2026-04-11T07:03:03.418Z</time></trkpt><trkpt lat="44.4795817" lon="10.7913183"><ele>272.0</ele><time>2026-04-11T07:03:05.418Z</time></trkpt><trkpt lat="44.4796467" lon="10.7913083"><ele>272.0</ele><time>2026-04-11T07:03:06.419Z</time></trkpt><trkpt lat="44.4797167" lon="10.791265"><ele>272.0</ele><time>2026-04-11T07:03:07.418Z</time></trkpt><trkpt lat="44.47979" lon="10.7911967"><ele>272.0</ele><time>2026-04-11T07:03:08.418Z</time></trkpt><trkpt lat="44.4798633" lon="10.7911067"><ele>273.0</ele><time>2026-04-11T07:03:09.418Z</time></trkpt><trkpt lat="44.4799417" lon="10.7910033"><ele>274.0</ele><time>2026-04-11T07:03:10.419Z</time></trkpt><trkpt lat="44.4800267" lon="10.790905"><ele>275.0</ele><time>2026-04-11T07:03:11.418Z</time></trkpt><trkpt lat="44.4801217" lon="10.79081"><ele>276.0</ele><time>2026-04-11T07:03:12.418Z</time></trkpt><trkpt lat="44.480225" lon="10.79072"><ele>276.0</ele><time>2026-04-11T07:03:13.418Z</time></trkpt><trkpt lat="44.4803283" lon="10.790635"><ele>276.0</ele><time>2026-04-11T07:03:14.419Z</time></trkpt><trkpt lat="44.4804217" lon="10.7905483"><ele>276.0</ele><time>2026-04-11T07:03:15.418Z</time></trkpt><trkpt lat="44.480505" lon="10.7904633"><ele>276.0</ele><time>2026-04-11T07:03:16.418Z</time></trkpt><trkpt lat="44.4805783" lon="10.7903633"><ele>276.0</ele><time>2026-04-11T07:03:17.418Z</time></trkpt><trkpt lat="44.4806383" lon="10.7902617"><ele>278.0</ele><time>2026-04-11T07:03:18.418Z</time></trkpt><trkpt lat="44.4806917" lon="10.7901583"><ele>280.0</ele><time>2026-04-11T07:03:19.418Z</time></trkpt><trkpt lat="44.480735" lon="10.7900417"><ele>282.0</ele><time>2026-04-11T07:03:20.419Z</time></trkpt><trkpt lat="44.48077" lon="10.7899233"><ele>284.0</ele><time>2026-04-11T07:03:21.419Z</time></trkpt><trkpt lat="44.4808017" lon="10.789805"><ele>286.0</ele><time>2026-04-11T07:03:22.418Z</time></trkpt><trkpt lat="44.4808267" lon="10.7896717"><ele>286.0</ele><time>2026-04-11T07:03:23.418Z</time></trkpt><trkpt lat="44.480845" lon="10.7895433"><ele>286.0</ele><time>2026-04-11T07:03:24.419Z</time></trkpt><trkpt lat="44.4808417" lon="10.7894183"><ele>286.0</ele><time>2026-04-11T07:03:25.418Z</time></trkpt><trkpt lat="44.4808317" lon="10.7893"><ele>286.0</ele><time>2026-04-11T07:03:26.418Z</time></trkpt><trkpt lat="44.4808033" lon="10.7891933"><ele>286.0</ele><time>2026-04-11T07:03:27.418Z</time></trkpt><trkpt lat="44.480755" lon="10.7890983"><ele>286.0</ele><time>2026-04-11T07:03:28.419Z</time></trkpt><trkpt lat="44.4806967" lon="10.7890117"><ele>287.66666666666663</ele><time>2026-04-11T07:03:29.418Z</time></trkpt><trkpt lat="44.480625" lon="10.788945"><ele>289.3333333333333</ele><time>2026-04-11T07:03:30.418Z</time></trkpt><trkpt lat="44.48055" lon="10.7889117"><ele>291.0</ele><time>2026-04-11T07:03:31.419Z</time></trkpt><trkpt lat="44.4804633" lon="10.788915"><ele>292.6666666666667</ele><time>2026-04-11T07:03:32.418Z</time></trkpt><trkpt lat="44.4803783" lon="10.78896"><ele>294.33333333333337</ele><time>2026-04-11T07:03:33.419Z</time></trkpt><trkpt lat="44.4802933" lon="10.7890033"><ele>296.0</ele><time>2026-04-11T07:03:34.418Z</time></trkpt><trkpt lat="44.4802183" lon="10.7890433"><ele>305.0</ele><time>2026-04-11T07:03:35.418Z</time></trkpt><trkpt lat="44.48015" lon="10.7890683"><ele>305.0</ele><time>2026-04-11T07:03:36.418Z</time></trkpt><trkpt lat="44.4800517" lon="10.7890033"><ele>305.0</ele><time>2026-04-11T07:03:38.418Z</time></trkpt></trkseg><trkseg><trkpt lat="44.6399567" lon="10.9280783"><ele>75.0</ele><time>2026-04-11T12:29:59.413Z</time></trkpt></trkseg></trk></gpx>